<?xml version="1.0" encoding="UTF-8" standalone="no" ?>
<gpx xmlns="http://www.topografix.com/GPX/1/1" xmlns:xsi="http://www.w3.org/2001/XMLSchema-instance" xsi:schemaLocation="http://www.topografix.com/GPX/1/1 http://www.topografix.com/GPX/1/1/gpx.xsd" version="1.1" creator="VisuGPX - https://www.visugpx.com">
  <metadata>
    <name>2023-09-13 J9</name>
    <desc><![CDATA[Stevenson J9 LesAlpiers-PontDeMonvert (Mont Lozère)]]></desc>
  </metadata>
  <wpt lat="44.50048" lon="3.75635">
    <ele>1168</ele>
    <name><![CDATA[0001422]]></name>
    <type><![CDATA[Point de départ]]></type>
  </wpt>
  <wpt lat="44.42107" lon="3.75046">
    <ele>1556.8</ele>
    <name><![CDATA[0001423]]></name>
    <desc><![CDATA[<p><br /><h3>Nom: Segment: 1</h3><br />Heure de départ: 09/13/2023 08:30<br/>Heure d'arrivée: 09/13/2023 13:30<br/>Distance: 13,9km (04:59)<br/>Temps déplacement: 03:18<br/>Vitesse moyenne: 2,78 km/h<br/>Vitesse moyenne mouv.: 4,04 km/h<br/>Vitesse Max.: 26,04 km/h<br/>Altitude minimale: 1041 m<br/>Altitude maximale: 1700 m<br/>Vitesse de montée: 251,3 m/h<br/>Vitesse de descente: -275,3 m/h<br/>Gain d'altitude: 788 m<br/>Perte d'altitude: -373 m<br/>Temps de montée: 03:08<br/>Temps de descente: 01:21<br/></p>]]></desc>
    <type><![CDATA[Point d'arrivée]]></type>
  </wpt>
  <wpt lat="44.42105" lon="3.75056">
    <ele>1559</ele>
    <name><![CDATA[0001424]]></name>
    <type><![CDATA[Point de départ]]></type>
  </wpt>
  <wpt lat="44.36282" lon="3.74367">
    <ele>871.7</ele>
    <name><![CDATA[0001425]]></name>
    <desc><![CDATA[<p><br /><h3>Nom: Segment: 2</h3><br />Heure de départ: 09/13/2023 13:50<br/>Heure d'arrivée: 09/13/2023 16:29<br/>Distance: 8,1km (02:38)<br/>Temps déplacement: 02:06<br/>Vitesse moyenne: 3,08 km/h<br/>Vitesse moyenne mouv.: 3,84 km/h<br/>Vitesse Max.: 6,25 km/h<br/>Altitude minimale: 869 m<br/>Altitude maximale: 1561 m<br/>Vitesse de montée: 238,8 m/h<br/>Vitesse de descente: -310,6 m/h<br/>Gain d'altitude: 26 m<br/>Perte d'altitude: -718 m<br/>Temps de montée: 00:06<br/>Temps de descente: 02:18<br/></p>]]></desc>
    <type><![CDATA[Point d'arrivée]]></type>
  </wpt>
  <trk>
    <name><![CDATA[2023-09-13 08:30]]></name>
    <desc><![CDATA[<p>Heure de départ: 09/13/2023 08:30<br/>Heure d'arrivée: 09/13/2023 16:29<br/>Distance: 22 km (07:37)<br/>Temps déplacement: 05:24<br/>Vitesse moyenne: 2,89 km/h<br/>Vitesse moyenne mouv.: 4,07 km/h<br/>Vitesse Max.: 26,04 km/h<br/>Altitude minimale: 869 m<br/>Altitude maximale: 1700 m<br/>Vitesse de montée: 227,4 m/h<br/>Vitesse de descente: -252,4 m/h<br/>Gain d'altitude: 781 m<br/>Perte d'altitude: -1022 m<br/>Temps de montée: 03:26<br/>Temps de descente: 04:03<br/></p><hr align="center" width="480" style="height: 2px; width: 517px"/>]]></desc>
    <extensions>
      <line xmlns="http://www.topografix.com/GPX/gpx_style/0/2">
        <color>0000FF</color>
        <width>4</width>
      </line>
    </extensions>
    <trkseg>
      <trkpt lat="44.50048" lon="3.75635">
        <ele>1170.69</ele>
        <time>2023-09-13T06:30:44Z</time>
      </trkpt>
      <trkpt lat="44.50049" lon="3.75606">
        <ele>1172.69</ele>
        <time>2023-09-13T06:31:48Z</time>
      </trkpt>
      <trkpt lat="44.5004" lon="3.75584">
        <ele>1173.69</ele>
        <time>2023-09-13T06:32:24Z</time>
      </trkpt>
      <trkpt lat="44.50021" lon="3.7557">
        <ele>1172.69</ele>
        <time>2023-09-13T06:32:44Z</time>
      </trkpt>
      <trkpt lat="44.50001" lon="3.75555">
        <ele>1170.69</ele>
        <time>2023-09-13T06:33:04Z</time>
      </trkpt>
      <trkpt lat="44.4999" lon="3.75533">
        <ele>1167.69</ele>
        <time>2023-09-13T06:33:20Z</time>
      </trkpt>
      <trkpt lat="44.49984" lon="3.75509">
        <ele>1167.69</ele>
        <time>2023-09-13T06:33:36Z</time>
      </trkpt>
      <trkpt lat="44.49984" lon="3.75479">
        <ele>1169.69</ele>
        <time>2023-09-13T06:33:52Z</time>
      </trkpt>
      <trkpt lat="44.49984" lon="3.75453">
        <ele>1171.69</ele>
        <time>2023-09-13T06:34:08Z</time>
      </trkpt>
      <trkpt lat="44.49985" lon="3.75421">
        <ele>1166.69</ele>
        <time>2023-09-13T06:34:24Z</time>
      </trkpt>
      <trkpt lat="44.49993" lon="3.75398">
        <ele>1165.69</ele>
        <time>2023-09-13T06:34:40Z</time>
      </trkpt>
      <trkpt lat="44.50001" lon="3.75373">
        <ele>1165.69</ele>
        <time>2023-09-13T06:34:56Z</time>
      </trkpt>
      <trkpt lat="44.50008" lon="3.75346">
        <ele>1166.69</ele>
        <time>2023-09-13T06:35:12Z</time>
      </trkpt>
      <trkpt lat="44.50004" lon="3.7532">
        <ele>1166.69</ele>
        <time>2023-09-13T06:35:32Z</time>
      </trkpt>
      <trkpt lat="44.49987" lon="3.75301">
        <ele>1165.69</ele>
        <time>2023-09-13T06:35:48Z</time>
      </trkpt>
      <trkpt lat="44.49973" lon="3.75283">
        <ele>1165.69</ele>
        <time>2023-09-13T06:36:04Z</time>
      </trkpt>
      <trkpt lat="44.49956" lon="3.75266">
        <ele>1164.69</ele>
        <time>2023-09-13T06:36:20Z</time>
      </trkpt>
      <trkpt lat="44.49939" lon="3.75249">
        <ele>1165.69</ele>
        <time>2023-09-13T06:36:40Z</time>
      </trkpt>
      <trkpt lat="44.49917" lon="3.75243">
        <ele>1169.69</ele>
        <time>2023-09-13T06:37:00Z</time>
      </trkpt>
      <trkpt lat="44.49897" lon="3.75243">
        <ele>1171.69</ele>
        <time>2023-09-13T06:37:12Z</time>
      </trkpt>
      <trkpt lat="44.49875" lon="3.75243">
        <ele>1168.69</ele>
        <time>2023-09-13T06:37:28Z</time>
      </trkpt>
      <trkpt lat="44.49857" lon="3.75252">
        <ele>1167.69</ele>
        <time>2023-09-13T06:38:04Z</time>
      </trkpt>
      <trkpt lat="44.49837" lon="3.75252">
        <ele>1166.69</ele>
        <time>2023-09-13T06:38:20Z</time>
      </trkpt>
      <trkpt lat="44.49819" lon="3.75232">
        <ele>1166.69</ele>
        <time>2023-09-13T06:38:44Z</time>
      </trkpt>
      <trkpt lat="44.49804" lon="3.75217">
        <ele>1166.69</ele>
        <time>2023-09-13T06:38:56Z</time>
      </trkpt>
      <trkpt lat="44.49791" lon="3.75194">
        <ele>1166.69</ele>
        <time>2023-09-13T06:39:12Z</time>
      </trkpt>
      <trkpt lat="44.49778" lon="3.75173">
        <ele>1167.69</ele>
        <time>2023-09-13T06:39:24Z</time>
      </trkpt>
      <trkpt lat="44.49765" lon="3.75156">
        <ele>1167.69</ele>
        <time>2023-09-13T06:39:36Z</time>
      </trkpt>
      <trkpt lat="44.4975" lon="3.75141">
        <ele>1167.69</ele>
        <time>2023-09-13T06:39:48Z</time>
      </trkpt>
      <trkpt lat="44.49737" lon="3.75116">
        <ele>1167.69</ele>
        <time>2023-09-13T06:40:04Z</time>
      </trkpt>
      <trkpt lat="44.49733" lon="3.7509">
        <ele>1167.69</ele>
        <time>2023-09-13T06:40:20Z</time>
      </trkpt>
      <trkpt lat="44.49732" lon="3.75064">
        <ele>1166.69</ele>
        <time>2023-09-13T06:40:32Z</time>
      </trkpt>
      <trkpt lat="44.49721" lon="3.75036">
        <ele>1163.69</ele>
        <time>2023-09-13T06:40:48Z</time>
      </trkpt>
      <trkpt lat="44.49706" lon="3.75011">
        <ele>1160.69</ele>
        <time>2023-09-13T06:41:04Z</time>
      </trkpt>
      <trkpt lat="44.49688" lon="3.7499">
        <ele>1157.33</ele>
        <time>2023-09-13T06:41:20Z</time>
      </trkpt>
      <trkpt lat="44.49669" lon="3.74972">
        <ele>1155.33</ele>
        <time>2023-09-13T06:41:36Z</time>
      </trkpt>
      <trkpt lat="44.49653" lon="3.74954">
        <ele>1154.33</ele>
        <time>2023-09-13T06:41:52Z</time>
      </trkpt>
      <trkpt lat="44.49634" lon="3.74936">
        <ele>1152.33</ele>
        <time>2023-09-13T06:42:08Z</time>
      </trkpt>
      <trkpt lat="44.49619" lon="3.74923">
        <ele>1151.33</ele>
        <time>2023-09-13T06:42:20Z</time>
      </trkpt>
      <trkpt lat="44.49599" lon="3.74905">
        <ele>1150.33</ele>
        <time>2023-09-13T06:42:36Z</time>
      </trkpt>
      <trkpt lat="44.49581" lon="3.74886">
        <ele>1149.33</ele>
        <time>2023-09-13T06:42:52Z</time>
      </trkpt>
      <trkpt lat="44.49566" lon="3.74866">
        <ele>1149.33</ele>
        <time>2023-09-13T06:43:08Z</time>
      </trkpt>
      <trkpt lat="44.49549" lon="3.74843">
        <ele>1146.33</ele>
        <time>2023-09-13T06:43:24Z</time>
      </trkpt>
      <trkpt lat="44.49533" lon="3.74821">
        <ele>1146.33</ele>
        <time>2023-09-13T06:43:40Z</time>
      </trkpt>
      <trkpt lat="44.4952" lon="3.748">
        <ele>1144.33</ele>
        <time>2023-09-13T06:43:56Z</time>
      </trkpt>
      <trkpt lat="44.49508" lon="3.74777">
        <ele>1144.33</ele>
        <time>2023-09-13T06:44:16Z</time>
      </trkpt>
      <trkpt lat="44.49495" lon="3.74755">
        <ele>1144.33</ele>
        <time>2023-09-13T06:44:32Z</time>
      </trkpt>
      <trkpt lat="44.49479" lon="3.74734">
        <ele>1143.33</ele>
        <time>2023-09-13T06:44:48Z</time>
      </trkpt>
      <trkpt lat="44.49465" lon="3.74716">
        <ele>1140.33</ele>
        <time>2023-09-13T06:45:04Z</time>
      </trkpt>
      <trkpt lat="44.49445" lon="3.74704">
        <ele>1138.33</ele>
        <time>2023-09-13T06:45:24Z</time>
      </trkpt>
      <trkpt lat="44.49429" lon="3.74689">
        <ele>1136.33</ele>
        <time>2023-09-13T06:45:40Z</time>
      </trkpt>
      <trkpt lat="44.49419" lon="3.74662">
        <ele>1134.33</ele>
        <time>2023-09-13T06:46:00Z</time>
      </trkpt>
      <trkpt lat="44.49411" lon="3.74635">
        <ele>1131.33</ele>
        <time>2023-09-13T06:46:16Z</time>
      </trkpt>
      <trkpt lat="44.49403" lon="3.74607">
        <ele>1131.33</ele>
        <time>2023-09-13T06:46:32Z</time>
      </trkpt>
      <trkpt lat="44.49393" lon="3.7458">
        <ele>1130.33</ele>
        <time>2023-09-13T06:46:48Z</time>
      </trkpt>
      <trkpt lat="44.49381" lon="3.74552">
        <ele>1126.33</ele>
        <time>2023-09-13T06:47:04Z</time>
      </trkpt>
      <trkpt lat="44.49372" lon="3.74528">
        <ele>1125.33</ele>
        <time>2023-09-13T06:47:20Z</time>
      </trkpt>
      <trkpt lat="44.49368" lon="3.74502">
        <ele>1123.33</ele>
        <time>2023-09-13T06:47:36Z</time>
      </trkpt>
      <trkpt lat="44.49354" lon="3.74479">
        <ele>1120.33</ele>
        <time>2023-09-13T06:47:52Z</time>
      </trkpt>
      <trkpt lat="44.49341" lon="3.74456">
        <ele>1117.33</ele>
        <time>2023-09-13T06:48:08Z</time>
      </trkpt>
      <trkpt lat="44.4933" lon="3.74435">
        <ele>1116.33</ele>
        <time>2023-09-13T06:48:28Z</time>
      </trkpt>
      <trkpt lat="44.4932" lon="3.74409">
        <ele>1113.33</ele>
        <time>2023-09-13T06:48:44Z</time>
      </trkpt>
      <trkpt lat="44.49309" lon="3.74382">
        <ele>1113.33</ele>
        <time>2023-09-13T06:49:00Z</time>
      </trkpt>
      <trkpt lat="44.49294" lon="3.7436">
        <ele>1113.33</ele>
        <time>2023-09-13T06:49:16Z</time>
      </trkpt>
      <trkpt lat="44.49278" lon="3.74347">
        <ele>1111.33</ele>
        <time>2023-09-13T06:49:32Z</time>
      </trkpt>
      <trkpt lat="44.49264" lon="3.74325">
        <ele>1109.33</ele>
        <time>2023-09-13T06:49:48Z</time>
      </trkpt>
      <trkpt lat="44.4925" lon="3.74302">
        <ele>1109.33</ele>
        <time>2023-09-13T06:50:04Z</time>
      </trkpt>
      <trkpt lat="44.49234" lon="3.74279">
        <ele>1107.33</ele>
        <time>2023-09-13T06:50:20Z</time>
      </trkpt>
      <trkpt lat="44.4922" lon="3.7426">
        <ele>1105.33</ele>
        <time>2023-09-13T06:50:36Z</time>
      </trkpt>
      <trkpt lat="44.49206" lon="3.7424">
        <ele>1104.33</ele>
        <time>2023-09-13T06:50:52Z</time>
      </trkpt>
      <trkpt lat="44.49198" lon="3.74217">
        <ele>1102.33</ele>
        <time>2023-09-13T06:51:08Z</time>
      </trkpt>
      <trkpt lat="44.49187" lon="3.74195">
        <ele>1100.33</ele>
        <time>2023-09-13T06:51:24Z</time>
      </trkpt>
      <trkpt lat="44.49172" lon="3.74175">
        <ele>1094.33</ele>
        <time>2023-09-13T06:51:48Z</time>
      </trkpt>
      <trkpt lat="44.49175" lon="3.74146">
        <ele>1089.33</ele>
        <time>2023-09-13T06:52:44Z</time>
      </trkpt>
      <trkpt lat="44.49186" lon="3.74124">
        <ele>1086.33</ele>
        <time>2023-09-13T06:53:28Z</time>
      </trkpt>
      <trkpt lat="44.49173" lon="3.741">
        <ele>1083.33</ele>
        <time>2023-09-13T06:53:48Z</time>
      </trkpt>
      <trkpt lat="44.49157" lon="3.74088">
        <ele>1082.33</ele>
        <time>2023-09-13T06:54:04Z</time>
      </trkpt>
      <trkpt lat="44.49139" lon="3.74094">
        <ele>1080.33</ele>
        <time>2023-09-13T06:54:20Z</time>
      </trkpt>
      <trkpt lat="44.4912" lon="3.74096">
        <ele>1077.33</ele>
        <time>2023-09-13T06:54:36Z</time>
      </trkpt>
      <trkpt lat="44.49102" lon="3.74074">
        <ele>1071.33</ele>
        <time>2023-09-13T06:55:00Z</time>
      </trkpt>
      <trkpt lat="44.49088" lon="3.74054">
        <ele>1072.33</ele>
        <time>2023-09-13T06:55:16Z</time>
      </trkpt>
      <trkpt lat="44.49073" lon="3.74038">
        <ele>1073.33</ele>
        <time>2023-09-13T06:55:28Z</time>
      </trkpt>
      <trkpt lat="44.49059" lon="3.74023">
        <ele>1073.33</ele>
        <time>2023-09-13T06:55:40Z</time>
      </trkpt>
      <trkpt lat="44.49043" lon="3.74009">
        <ele>1072.33</ele>
        <time>2023-09-13T06:55:56Z</time>
      </trkpt>
      <trkpt lat="44.49024" lon="3.74009">
        <ele>1074.33</ele>
        <time>2023-09-13T06:56:12Z</time>
      </trkpt>
      <trkpt lat="44.49068" lon="3.74011">
        <ele>1071.33</ele>
        <time>2023-09-13T07:00:41Z</time>
      </trkpt>
      <trkpt lat="44.4903" lon="3.73848">
        <ele>1155.33</ele>
        <time>2023-09-13T07:03:35Z</time>
      </trkpt>
      <trkpt lat="44.49113" lon="3.7405">
        <ele>1067.33</ele>
        <time>2023-09-13T07:04:43Z</time>
      </trkpt>
      <trkpt lat="44.49094" lon="3.74045">
        <ele>1061.33</ele>
        <time>2023-09-13T07:04:44Z</time>
      </trkpt>
      <trkpt lat="44.49049" lon="3.74029">
        <ele>1050.33</ele>
        <time>2023-09-13T07:04:48Z</time>
      </trkpt>
      <trkpt lat="44.49031" lon="3.74022">
        <ele>1041.33</ele>
        <time>2023-09-13T07:04:56Z</time>
      </trkpt>
      <trkpt lat="44.49024" lon="3.73997">
        <ele>1072.33</ele>
        <time>2023-09-13T07:09:32Z</time>
      </trkpt>
      <trkpt lat="44.49019" lon="3.73972">
        <ele>1070.33</ele>
        <time>2023-09-13T07:10:04Z</time>
      </trkpt>
      <trkpt lat="44.49007" lon="3.73951">
        <ele>1070.33</ele>
        <time>2023-09-13T07:10:24Z</time>
      </trkpt>
      <trkpt lat="44.48985" lon="3.73939">
        <ele>1070.33</ele>
        <time>2023-09-13T07:10:44Z</time>
      </trkpt>
      <trkpt lat="44.48965" lon="3.73935">
        <ele>1069.33</ele>
        <time>2023-09-13T07:11:00Z</time>
      </trkpt>
      <trkpt lat="44.48945" lon="3.73929">
        <ele>1068.33</ele>
        <time>2023-09-13T07:11:16Z</time>
      </trkpt>
      <trkpt lat="44.48926" lon="3.73923">
        <ele>1068.33</ele>
        <time>2023-09-13T07:11:36Z</time>
      </trkpt>
      <trkpt lat="44.48921" lon="3.73897">
        <ele>1066.33</ele>
        <time>2023-09-13T07:13:00Z</time>
      </trkpt>
      <trkpt lat="44.48916" lon="3.73871">
        <ele>1066.33</ele>
        <time>2023-09-13T07:13:16Z</time>
      </trkpt>
      <trkpt lat="44.48907" lon="3.73847">
        <ele>1066.33</ele>
        <time>2023-09-13T07:13:32Z</time>
      </trkpt>
      <trkpt lat="44.48898" lon="3.73818">
        <ele>1068.33</ele>
        <time>2023-09-13T07:13:52Z</time>
      </trkpt>
      <trkpt lat="44.48885" lon="3.73797">
        <ele>1066.33</ele>
        <time>2023-09-13T07:14:12Z</time>
      </trkpt>
      <trkpt lat="44.48869" lon="3.7378">
        <ele>1069.33</ele>
        <time>2023-09-13T07:14:28Z</time>
      </trkpt>
      <trkpt lat="44.48852" lon="3.73767">
        <ele>1072.33</ele>
        <time>2023-09-13T07:14:44Z</time>
      </trkpt>
      <trkpt lat="44.48837" lon="3.73752">
        <ele>1074.33</ele>
        <time>2023-09-13T07:15:00Z</time>
      </trkpt>
      <trkpt lat="44.48823" lon="3.73732">
        <ele>1078.33</ele>
        <time>2023-09-13T07:15:20Z</time>
      </trkpt>
      <trkpt lat="44.48811" lon="3.7371">
        <ele>1078.33</ele>
        <time>2023-09-13T07:15:36Z</time>
      </trkpt>
      <trkpt lat="44.48799" lon="3.73692">
        <ele>1079.33</ele>
        <time>2023-09-13T07:15:52Z</time>
      </trkpt>
      <trkpt lat="44.48786" lon="3.73667">
        <ele>1082.33</ele>
        <time>2023-09-13T07:16:12Z</time>
      </trkpt>
      <trkpt lat="44.48771" lon="3.73647">
        <ele>1083.33</ele>
        <time>2023-09-13T07:16:32Z</time>
      </trkpt>
      <trkpt lat="44.48756" lon="3.73628">
        <ele>1088.33</ele>
        <time>2023-09-13T07:16:52Z</time>
      </trkpt>
      <trkpt lat="44.48739" lon="3.73613">
        <ele>1088.33</ele>
        <time>2023-09-13T07:17:08Z</time>
      </trkpt>
      <trkpt lat="44.48724" lon="3.73595">
        <ele>1087.33</ele>
        <time>2023-09-13T07:17:24Z</time>
      </trkpt>
      <trkpt lat="44.48709" lon="3.73579">
        <ele>1086.33</ele>
        <time>2023-09-13T07:17:40Z</time>
      </trkpt>
      <trkpt lat="44.48693" lon="3.73569">
        <ele>1085.33</ele>
        <time>2023-09-13T07:17:56Z</time>
      </trkpt>
      <trkpt lat="44.48674" lon="3.7355">
        <ele>1084.33</ele>
        <time>2023-09-13T07:18:12Z</time>
      </trkpt>
      <trkpt lat="44.48661" lon="3.73568">
        <ele>1085.33</ele>
        <time>2023-09-13T07:19:46Z</time>
      </trkpt>
      <trkpt lat="44.48661" lon="3.73598">
        <ele>1089.33</ele>
        <time>2023-09-13T07:20:58Z</time>
      </trkpt>
      <trkpt lat="44.4866" lon="3.73625">
        <ele>1092.33</ele>
        <time>2023-09-13T07:21:22Z</time>
      </trkpt>
      <trkpt lat="44.48667" lon="3.7365">
        <ele>1093.33</ele>
        <time>2023-09-13T07:21:46Z</time>
      </trkpt>
      <trkpt lat="44.48688" lon="3.73658">
        <ele>1097.33</ele>
        <time>2023-09-13T07:22:14Z</time>
      </trkpt>
      <trkpt lat="44.48671" lon="3.73667">
        <ele>1100.33</ele>
        <time>2023-09-13T07:24:02Z</time>
      </trkpt>
      <trkpt lat="44.48651" lon="3.73676">
        <ele>1103.33</ele>
        <time>2023-09-13T07:24:22Z</time>
      </trkpt>
      <trkpt lat="44.48636" lon="3.73697">
        <ele>1105.33</ele>
        <time>2023-09-13T07:24:42Z</time>
      </trkpt>
      <trkpt lat="44.48622" lon="3.73717">
        <ele>1107.33</ele>
        <time>2023-09-13T07:25:02Z</time>
      </trkpt>
      <trkpt lat="44.48617" lon="3.73744">
        <ele>1108.33</ele>
        <time>2023-09-13T07:25:22Z</time>
      </trkpt>
      <trkpt lat="44.48619" lon="3.7377">
        <ele>1110.33</ele>
        <time>2023-09-13T07:25:50Z</time>
      </trkpt>
      <trkpt lat="44.48603" lon="3.73785">
        <ele>1114.33</ele>
        <time>2023-09-13T07:26:14Z</time>
      </trkpt>
      <trkpt lat="44.48581" lon="3.73794">
        <ele>1116.33</ele>
        <time>2023-09-13T07:26:38Z</time>
      </trkpt>
      <trkpt lat="44.48564" lon="3.7381">
        <ele>1120.33</ele>
        <time>2023-09-13T07:27:02Z</time>
      </trkpt>
      <trkpt lat="44.48547" lon="3.73826">
        <ele>1120.33</ele>
        <time>2023-09-13T07:27:22Z</time>
      </trkpt>
      <trkpt lat="44.48532" lon="3.73841">
        <ele>1120.33</ele>
        <time>2023-09-13T07:27:38Z</time>
      </trkpt>
      <trkpt lat="44.48515" lon="3.73858">
        <ele>1119.33</ele>
        <time>2023-09-13T07:27:58Z</time>
      </trkpt>
      <trkpt lat="44.48499" lon="3.73874">
        <ele>1122.33</ele>
        <time>2023-09-13T07:28:18Z</time>
      </trkpt>
      <trkpt lat="44.48484" lon="3.73887">
        <ele>1122.33</ele>
        <time>2023-09-13T07:28:38Z</time>
      </trkpt>
      <trkpt lat="44.48468" lon="3.73903">
        <ele>1123.33</ele>
        <time>2023-09-13T07:28:58Z</time>
      </trkpt>
      <trkpt lat="44.48451" lon="3.73918">
        <ele>1122.33</ele>
        <time>2023-09-13T07:29:18Z</time>
      </trkpt>
      <trkpt lat="44.48436" lon="3.73932">
        <ele>1123.33</ele>
        <time>2023-09-13T07:29:34Z</time>
      </trkpt>
      <trkpt lat="44.48419" lon="3.73951">
        <ele>1123.33</ele>
        <time>2023-09-13T07:29:54Z</time>
      </trkpt>
      <trkpt lat="44.48403" lon="3.73968">
        <ele>1124.33</ele>
        <time>2023-09-13T07:30:14Z</time>
      </trkpt>
      <trkpt lat="44.48386" lon="3.73987">
        <ele>1125.33</ele>
        <time>2023-09-13T07:30:34Z</time>
      </trkpt>
      <trkpt lat="44.4837" lon="3.74003">
        <ele>1127.33</ele>
        <time>2023-09-13T07:30:54Z</time>
      </trkpt>
      <trkpt lat="44.48353" lon="3.74018">
        <ele>1129.33</ele>
        <time>2023-09-13T07:31:14Z</time>
      </trkpt>
      <trkpt lat="44.48334" lon="3.74014">
        <ele>1131.33</ele>
        <time>2023-09-13T07:31:38Z</time>
      </trkpt>
      <trkpt lat="44.48322" lon="3.73992">
        <ele>1135.33</ele>
        <time>2023-09-13T07:32:02Z</time>
      </trkpt>
      <trkpt lat="44.48314" lon="3.73966">
        <ele>1139.33</ele>
        <time>2023-09-13T07:32:30Z</time>
      </trkpt>
      <trkpt lat="44.48302" lon="3.73941">
        <ele>1142.33</ele>
        <time>2023-09-13T07:33:06Z</time>
      </trkpt>
      <trkpt lat="44.4829" lon="3.73918">
        <ele>1143.33</ele>
        <time>2023-09-13T07:33:30Z</time>
      </trkpt>
      <trkpt lat="44.48278" lon="3.73898">
        <ele>1148.33</ele>
        <time>2023-09-13T07:33:54Z</time>
      </trkpt>
      <trkpt lat="44.48258" lon="3.7389">
        <ele>1153.33</ele>
        <time>2023-09-13T07:34:22Z</time>
      </trkpt>
      <trkpt lat="44.48239" lon="3.73892">
        <ele>1155.33</ele>
        <time>2023-09-13T07:34:42Z</time>
      </trkpt>
      <trkpt lat="44.4822" lon="3.73899">
        <ele>1155.33</ele>
        <time>2023-09-13T07:35:02Z</time>
      </trkpt>
      <trkpt lat="44.482" lon="3.7391">
        <ele>1157.33</ele>
        <time>2023-09-13T07:35:26Z</time>
      </trkpt>
      <trkpt lat="44.48181" lon="3.73922">
        <ele>1159.33</ele>
        <time>2023-09-13T07:35:50Z</time>
      </trkpt>
      <trkpt lat="44.48164" lon="3.73939">
        <ele>1159.33</ele>
        <time>2023-09-13T07:36:14Z</time>
      </trkpt>
      <trkpt lat="44.48146" lon="3.73948">
        <ele>1160.33</ele>
        <time>2023-09-13T07:36:38Z</time>
      </trkpt>
      <trkpt lat="44.48127" lon="3.73951">
        <ele>1166.33</ele>
        <time>2023-09-13T07:37:06Z</time>
      </trkpt>
      <trkpt lat="44.48109" lon="3.73959">
        <ele>1168.33</ele>
        <time>2023-09-13T07:37:30Z</time>
      </trkpt>
      <trkpt lat="44.48089" lon="3.73963">
        <ele>1173.33</ele>
        <time>2023-09-13T07:37:54Z</time>
      </trkpt>
      <trkpt lat="44.48068" lon="3.73968">
        <ele>1173.33</ele>
        <time>2023-09-13T07:38:18Z</time>
      </trkpt>
      <trkpt lat="44.4805" lon="3.7398">
        <ele>1172.33</ele>
        <time>2023-09-13T07:38:42Z</time>
      </trkpt>
      <trkpt lat="44.48031" lon="3.73989">
        <ele>1175.33</ele>
        <time>2023-09-13T07:39:06Z</time>
      </trkpt>
      <trkpt lat="44.4801" lon="3.73997">
        <ele>1176.33</ele>
        <time>2023-09-13T07:39:30Z</time>
      </trkpt>
      <trkpt lat="44.47991" lon="3.74006">
        <ele>1177.33</ele>
        <time>2023-09-13T07:39:50Z</time>
      </trkpt>
      <trkpt lat="44.47972" lon="3.74017">
        <ele>1179.33</ele>
        <time>2023-09-13T07:40:14Z</time>
      </trkpt>
      <trkpt lat="44.47955" lon="3.74025">
        <ele>1182.33</ele>
        <time>2023-09-13T07:40:38Z</time>
      </trkpt>
      <trkpt lat="44.47937" lon="3.74032">
        <ele>1182.33</ele>
        <time>2023-09-13T07:40:58Z</time>
      </trkpt>
      <trkpt lat="44.47919" lon="3.74039">
        <ele>1182.33</ele>
        <time>2023-09-13T07:42:10Z</time>
      </trkpt>
      <trkpt lat="44.479" lon="3.74039">
        <ele>1185.33</ele>
        <time>2023-09-13T07:42:30Z</time>
      </trkpt>
      <trkpt lat="44.47881" lon="3.74038">
        <ele>1188.33</ele>
        <time>2023-09-13T07:42:50Z</time>
      </trkpt>
      <trkpt lat="44.47863" lon="3.74042">
        <ele>1188.33</ele>
        <time>2023-09-13T07:43:06Z</time>
      </trkpt>
      <trkpt lat="44.47843" lon="3.74045">
        <ele>1189.33</ele>
        <time>2023-09-13T07:43:26Z</time>
      </trkpt>
      <trkpt lat="44.47822" lon="3.74045">
        <ele>1189.33</ele>
        <time>2023-09-13T07:43:42Z</time>
      </trkpt>
      <trkpt lat="44.47801" lon="3.74046">
        <ele>1189.33</ele>
        <time>2023-09-13T07:44:02Z</time>
      </trkpt>
      <trkpt lat="44.47783" lon="3.74045">
        <ele>1188.33</ele>
        <time>2023-09-13T07:44:18Z</time>
      </trkpt>
      <trkpt lat="44.47761" lon="3.74042">
        <ele>1189.33</ele>
        <time>2023-09-13T07:44:38Z</time>
      </trkpt>
      <trkpt lat="44.47741" lon="3.74032">
        <ele>1189.33</ele>
        <time>2023-09-13T07:44:58Z</time>
      </trkpt>
      <trkpt lat="44.47719" lon="3.74024">
        <ele>1190.33</ele>
        <time>2023-09-13T07:45:18Z</time>
      </trkpt>
      <trkpt lat="44.47702" lon="3.74018">
        <ele>1188.33</ele>
        <time>2023-09-13T07:45:34Z</time>
      </trkpt>
      <trkpt lat="44.47683" lon="3.7401">
        <ele>1189.33</ele>
        <time>2023-09-13T07:45:50Z</time>
      </trkpt>
      <trkpt lat="44.47662" lon="3.74005">
        <ele>1191.33</ele>
        <time>2023-09-13T07:46:10Z</time>
      </trkpt>
      <trkpt lat="44.4764" lon="3.73999">
        <ele>1191.33</ele>
        <time>2023-09-13T07:46:31Z</time>
      </trkpt>
      <trkpt lat="44.47619" lon="3.73998">
        <ele>1194.33</ele>
        <time>2023-09-13T07:46:51Z</time>
      </trkpt>
      <trkpt lat="44.476" lon="3.73995">
        <ele>1193.33</ele>
        <time>2023-09-13T07:47:11Z</time>
      </trkpt>
      <trkpt lat="44.47579" lon="3.73989">
        <ele>1196.33</ele>
        <time>2023-09-13T07:47:35Z</time>
      </trkpt>
      <trkpt lat="44.4756" lon="3.73984">
        <ele>1195.33</ele>
        <time>2023-09-13T07:47:55Z</time>
      </trkpt>
      <trkpt lat="44.47543" lon="3.73972">
        <ele>1198.33</ele>
        <time>2023-09-13T07:48:15Z</time>
      </trkpt>
      <trkpt lat="44.47526" lon="3.73955">
        <ele>1199.33</ele>
        <time>2023-09-13T07:48:35Z</time>
      </trkpt>
      <trkpt lat="44.47511" lon="3.7394">
        <ele>1199.33</ele>
        <time>2023-09-13T07:48:51Z</time>
      </trkpt>
      <trkpt lat="44.47496" lon="3.73923">
        <ele>1199.33</ele>
        <time>2023-09-13T07:49:19Z</time>
      </trkpt>
      <trkpt lat="44.47486" lon="3.73902">
        <ele>1200.33</ele>
        <time>2023-09-13T07:49:35Z</time>
      </trkpt>
      <trkpt lat="44.47472" lon="3.73885">
        <ele>1198.33</ele>
        <time>2023-09-13T07:49:51Z</time>
      </trkpt>
      <trkpt lat="44.47457" lon="3.73868">
        <ele>1199.33</ele>
        <time>2023-09-13T07:50:07Z</time>
      </trkpt>
      <trkpt lat="44.4744" lon="3.73856">
        <ele>1200.33</ele>
        <time>2023-09-13T07:50:23Z</time>
      </trkpt>
      <trkpt lat="44.47419" lon="3.73851">
        <ele>1201.33</ele>
        <time>2023-09-13T07:50:43Z</time>
      </trkpt>
      <trkpt lat="44.47397" lon="3.73847">
        <ele>1193.33</ele>
        <time>2023-09-13T07:51:03Z</time>
      </trkpt>
      <trkpt lat="44.47379" lon="3.73844">
        <ele>1193.33</ele>
        <time>2023-09-13T07:51:23Z</time>
      </trkpt>
      <trkpt lat="44.47358" lon="3.73835">
        <ele>1197.33</ele>
        <time>2023-09-13T07:51:47Z</time>
      </trkpt>
      <trkpt lat="44.47337" lon="3.73832">
        <ele>1199.33</ele>
        <time>2023-09-13T07:52:15Z</time>
      </trkpt>
      <trkpt lat="44.47317" lon="3.73832">
        <ele>1205.33</ele>
        <time>2023-09-13T07:52:39Z</time>
      </trkpt>
      <trkpt lat="44.47297" lon="3.73831">
        <ele>1206.33</ele>
        <time>2023-09-13T07:53:07Z</time>
      </trkpt>
      <trkpt lat="44.47279" lon="3.73824">
        <ele>1212.33</ele>
        <time>2023-09-13T07:53:43Z</time>
      </trkpt>
      <trkpt lat="44.47261" lon="3.73816">
        <ele>1215.33</ele>
        <time>2023-09-13T07:54:35Z</time>
      </trkpt>
      <trkpt lat="44.47245" lon="3.73802">
        <ele>1219.33</ele>
        <time>2023-09-13T07:54:55Z</time>
      </trkpt>
      <trkpt lat="44.47224" lon="3.738">
        <ele>1220.33</ele>
        <time>2023-09-13T07:55:15Z</time>
      </trkpt>
      <trkpt lat="44.47203" lon="3.73808">
        <ele>1227.33</ele>
        <time>2023-09-13T07:55:43Z</time>
      </trkpt>
      <trkpt lat="44.47183" lon="3.73812">
        <ele>1227.33</ele>
        <time>2023-09-13T07:56:11Z</time>
      </trkpt>
      <trkpt lat="44.47164" lon="3.73812">
        <ele>1228.33</ele>
        <time>2023-09-13T07:57:19Z</time>
      </trkpt>
      <trkpt lat="44.47145" lon="3.73824">
        <ele>1231.33</ele>
        <time>2023-09-13T07:57:39Z</time>
      </trkpt>
      <trkpt lat="44.47127" lon="3.73835">
        <ele>1236.33</ele>
        <time>2023-09-13T07:57:55Z</time>
      </trkpt>
      <trkpt lat="44.47109" lon="3.73844">
        <ele>1238.33</ele>
        <time>2023-09-13T07:58:07Z</time>
      </trkpt>
      <trkpt lat="44.47092" lon="3.73858">
        <ele>1240.33</ele>
        <time>2023-09-13T07:58:27Z</time>
      </trkpt>
      <trkpt lat="44.47083" lon="3.73883">
        <ele>1242.33</ele>
        <time>2023-09-13T07:58:43Z</time>
      </trkpt>
      <trkpt lat="44.47071" lon="3.73907">
        <ele>1248.33</ele>
        <time>2023-09-13T07:59:03Z</time>
      </trkpt>
      <trkpt lat="44.47058" lon="3.73928">
        <ele>1255.33</ele>
        <time>2023-09-13T07:59:27Z</time>
      </trkpt>
      <trkpt lat="44.47048" lon="3.73952">
        <ele>1255.33</ele>
        <time>2023-09-13T07:59:47Z</time>
      </trkpt>
      <trkpt lat="44.47032" lon="3.73967">
        <ele>1258.33</ele>
        <time>2023-09-13T08:00:07Z</time>
      </trkpt>
      <trkpt lat="44.47019" lon="3.73989">
        <ele>1263.33</ele>
        <time>2023-09-13T08:00:27Z</time>
      </trkpt>
      <trkpt lat="44.47007" lon="3.74009">
        <ele>1264.33</ele>
        <time>2023-09-13T08:00:51Z</time>
      </trkpt>
      <trkpt lat="44.46991" lon="3.74026">
        <ele>1267.33</ele>
        <time>2023-09-13T08:01:15Z</time>
      </trkpt>
      <trkpt lat="44.46974" lon="3.7404">
        <ele>1271.33</ele>
        <time>2023-09-13T08:01:39Z</time>
      </trkpt>
      <trkpt lat="44.46956" lon="3.74056">
        <ele>1271.33</ele>
        <time>2023-09-13T08:02:03Z</time>
      </trkpt>
      <trkpt lat="44.46941" lon="3.74074">
        <ele>1271.33</ele>
        <time>2023-09-13T08:02:19Z</time>
      </trkpt>
      <trkpt lat="44.46926" lon="3.74089">
        <ele>1271.33</ele>
        <time>2023-09-13T08:02:39Z</time>
      </trkpt>
      <trkpt lat="44.46912" lon="3.74106">
        <ele>1270.33</ele>
        <time>2023-09-13T08:02:55Z</time>
      </trkpt>
      <trkpt lat="44.46898" lon="3.74131">
        <ele>1273.33</ele>
        <time>2023-09-13T08:03:15Z</time>
      </trkpt>
      <trkpt lat="44.46882" lon="3.74146">
        <ele>1274.33</ele>
        <time>2023-09-13T08:03:39Z</time>
      </trkpt>
      <trkpt lat="44.46868" lon="3.74166">
        <ele>1276.33</ele>
        <time>2023-09-13T08:04:03Z</time>
      </trkpt>
      <trkpt lat="44.46861" lon="3.74191">
        <ele>1279.33</ele>
        <time>2023-09-13T08:04:23Z</time>
      </trkpt>
      <trkpt lat="44.46853" lon="3.74214">
        <ele>1282.33</ele>
        <time>2023-09-13T08:04:43Z</time>
      </trkpt>
      <trkpt lat="44.46846" lon="3.74239">
        <ele>1284.33</ele>
        <time>2023-09-13T08:05:07Z</time>
      </trkpt>
      <trkpt lat="44.46841" lon="3.74265">
        <ele>1287.33</ele>
        <time>2023-09-13T08:05:27Z</time>
      </trkpt>
      <trkpt lat="44.46844" lon="3.74297">
        <ele>1284.33</ele>
        <time>2023-09-13T08:05:47Z</time>
      </trkpt>
      <trkpt lat="44.46849" lon="3.74328">
        <ele>1286.33</ele>
        <time>2023-09-13T08:06:07Z</time>
      </trkpt>
      <trkpt lat="44.46853" lon="3.74358">
        <ele>1288.33</ele>
        <time>2023-09-13T08:06:31Z</time>
      </trkpt>
      <trkpt lat="44.46859" lon="3.74385">
        <ele>1282.33</ele>
        <time>2023-09-13T08:06:51Z</time>
      </trkpt>
      <trkpt lat="44.46856" lon="3.7441">
        <ele>1285.33</ele>
        <time>2023-09-13T08:07:09Z</time>
      </trkpt>
      <trkpt lat="44.46851" lon="3.74435">
        <ele>1285.33</ele>
        <time>2023-09-13T08:07:33Z</time>
      </trkpt>
      <trkpt lat="44.46845" lon="3.7446">
        <ele>1286.33</ele>
        <time>2023-09-13T08:08:01Z</time>
      </trkpt>
      <trkpt lat="44.46831" lon="3.74479">
        <ele>1287.33</ele>
        <time>2023-09-13T08:08:25Z</time>
      </trkpt>
      <trkpt lat="44.46816" lon="3.74498">
        <ele>1292.33</ele>
        <time>2023-09-13T08:08:53Z</time>
      </trkpt>
      <trkpt lat="44.46803" lon="3.74518">
        <ele>1295.33</ele>
        <time>2023-09-13T08:09:17Z</time>
      </trkpt>
      <trkpt lat="44.46789" lon="3.74535">
        <ele>1297.33</ele>
        <time>2023-09-13T08:09:45Z</time>
      </trkpt>
      <trkpt lat="44.46773" lon="3.74549">
        <ele>1299.33</ele>
        <time>2023-09-13T08:10:09Z</time>
      </trkpt>
      <trkpt lat="44.46756" lon="3.74564">
        <ele>1307.33</ele>
        <time>2023-09-13T08:10:41Z</time>
      </trkpt>
      <trkpt lat="44.4674" lon="3.74585">
        <ele>1314.33</ele>
        <time>2023-09-13T08:11:09Z</time>
      </trkpt>
      <trkpt lat="44.46724" lon="3.74597">
        <ele>1321.33</ele>
        <time>2023-09-13T08:11:41Z</time>
      </trkpt>
      <trkpt lat="44.46706" lon="3.7461">
        <ele>1325.33</ele>
        <time>2023-09-13T08:12:09Z</time>
      </trkpt>
      <trkpt lat="44.46685" lon="3.74626">
        <ele>1327.33</ele>
        <time>2023-09-13T08:12:49Z</time>
      </trkpt>
      <trkpt lat="44.46667" lon="3.74639">
        <ele>1324.33</ele>
        <time>2023-09-13T08:13:25Z</time>
      </trkpt>
      <trkpt lat="44.46648" lon="3.74644">
        <ele>1320.33</ele>
        <time>2023-09-13T08:14:09Z</time>
      </trkpt>
      <trkpt lat="44.46627" lon="3.74648">
        <ele>1326.33</ele>
        <time>2023-09-13T08:14:41Z</time>
      </trkpt>
      <trkpt lat="44.46606" lon="3.74645">
        <ele>1323.33</ele>
        <time>2023-09-13T08:15:09Z</time>
      </trkpt>
      <trkpt lat="44.46592" lon="3.74663">
        <ele>1333.33</ele>
        <time>2023-09-13T08:15:37Z</time>
      </trkpt>
      <trkpt lat="44.46575" lon="3.74676">
        <ele>1338.33</ele>
        <time>2023-09-13T08:16:09Z</time>
      </trkpt>
      <trkpt lat="44.46559" lon="3.74691">
        <ele>1345.33</ele>
        <time>2023-09-13T08:16:53Z</time>
      </trkpt>
      <trkpt lat="44.46546" lon="3.7471">
        <ele>1336.33</ele>
        <time>2023-09-13T08:18:37Z</time>
      </trkpt>
      <trkpt lat="44.46528" lon="3.74726">
        <ele>1333.33</ele>
        <time>2023-09-13T08:19:09Z</time>
      </trkpt>
      <trkpt lat="44.46511" lon="3.74738">
        <ele>1341.33</ele>
        <time>2023-09-13T08:19:53Z</time>
      </trkpt>
      <trkpt lat="44.46495" lon="3.74752">
        <ele>1342.33</ele>
        <time>2023-09-13T08:20:33Z</time>
      </trkpt>
      <trkpt lat="44.46476" lon="3.74766">
        <ele>1342.33</ele>
        <time>2023-09-13T08:21:37Z</time>
      </trkpt>
      <trkpt lat="44.46459" lon="3.74781">
        <ele>1350.33</ele>
        <time>2023-09-13T08:22:09Z</time>
      </trkpt>
      <trkpt lat="44.46441" lon="3.74789">
        <ele>1352.33</ele>
        <time>2023-09-13T08:22:33Z</time>
      </trkpt>
      <trkpt lat="44.46423" lon="3.74799">
        <ele>1355.33</ele>
        <time>2023-09-13T08:22:57Z</time>
      </trkpt>
      <trkpt lat="44.46411" lon="3.74819">
        <ele>1361.33</ele>
        <time>2023-09-13T08:23:37Z</time>
      </trkpt>
      <trkpt lat="44.46392" lon="3.74825">
        <ele>1363.33</ele>
        <time>2023-09-13T08:24:13Z</time>
      </trkpt>
      <trkpt lat="44.46372" lon="3.74828">
        <ele>1372.33</ele>
        <time>2023-09-13T08:25:05Z</time>
      </trkpt>
      <trkpt lat="44.46353" lon="3.74825">
        <ele>1372.33</ele>
        <time>2023-09-13T08:25:46Z</time>
      </trkpt>
      <trkpt lat="44.46336" lon="3.74836">
        <ele>1379.33</ele>
        <time>2023-09-13T08:26:14Z</time>
      </trkpt>
      <trkpt lat="44.46317" lon="3.74831">
        <ele>1385.33</ele>
        <time>2023-09-13T08:26:46Z</time>
      </trkpt>
      <trkpt lat="44.46296" lon="3.74823">
        <ele>1389.33</ele>
        <time>2023-09-13T08:27:34Z</time>
      </trkpt>
      <trkpt lat="44.46277" lon="3.74818">
        <ele>1390.33</ele>
        <time>2023-09-13T08:27:58Z</time>
      </trkpt>
      <trkpt lat="44.46258" lon="3.74816">
        <ele>1390.33</ele>
        <time>2023-09-13T08:28:26Z</time>
      </trkpt>
      <trkpt lat="44.46238" lon="3.74809">
        <ele>1391.33</ele>
        <time>2023-09-13T08:28:54Z</time>
      </trkpt>
      <trkpt lat="44.46219" lon="3.74803">
        <ele>1394.33</ele>
        <time>2023-09-13T08:29:14Z</time>
      </trkpt>
      <trkpt lat="44.46201" lon="3.74792">
        <ele>1399.33</ele>
        <time>2023-09-13T08:29:34Z</time>
      </trkpt>
      <trkpt lat="44.4618" lon="3.74792">
        <ele>1403.33</ele>
        <time>2023-09-13T08:30:18Z</time>
      </trkpt>
      <trkpt lat="44.4616" lon="3.74789">
        <ele>1402.33</ele>
        <time>2023-09-13T08:30:38Z</time>
      </trkpt>
      <trkpt lat="44.46139" lon="3.74794">
        <ele>1399.33</ele>
        <time>2023-09-13T08:30:58Z</time>
      </trkpt>
      <trkpt lat="44.46122" lon="3.748">
        <ele>1401.33</ele>
        <time>2023-09-13T08:31:18Z</time>
      </trkpt>
      <trkpt lat="44.46102" lon="3.74805">
        <ele>1403.33</ele>
        <time>2023-09-13T08:31:38Z</time>
      </trkpt>
      <trkpt lat="44.46082" lon="3.74807">
        <ele>1405.33</ele>
        <time>2023-09-13T08:31:58Z</time>
      </trkpt>
      <trkpt lat="44.46063" lon="3.74813">
        <ele>1408.33</ele>
        <time>2023-09-13T08:32:18Z</time>
      </trkpt>
      <trkpt lat="44.46042" lon="3.74818">
        <ele>1408.33</ele>
        <time>2023-09-13T08:32:38Z</time>
      </trkpt>
      <trkpt lat="44.46024" lon="3.74821">
        <ele>1408.33</ele>
        <time>2023-09-13T08:32:58Z</time>
      </trkpt>
      <trkpt lat="44.46007" lon="3.74833">
        <ele>1408.33</ele>
        <time>2023-09-13T08:34:30Z</time>
      </trkpt>
      <trkpt lat="44.45987" lon="3.74842">
        <ele>1409.33</ele>
        <time>2023-09-13T08:34:50Z</time>
      </trkpt>
      <trkpt lat="44.45966" lon="3.74841">
        <ele>1409.33</ele>
        <time>2023-09-13T08:35:10Z</time>
      </trkpt>
      <trkpt lat="44.45945" lon="3.74843">
        <ele>1410.33</ele>
        <time>2023-09-13T08:35:30Z</time>
      </trkpt>
      <trkpt lat="44.45926" lon="3.74848">
        <ele>1408.33</ele>
        <time>2023-09-13T08:35:46Z</time>
      </trkpt>
      <trkpt lat="44.45908" lon="3.74854">
        <ele>1407.33</ele>
        <time>2023-09-13T08:36:02Z</time>
      </trkpt>
      <trkpt lat="44.45887" lon="3.74864">
        <ele>1407.33</ele>
        <time>2023-09-13T08:36:22Z</time>
      </trkpt>
      <trkpt lat="44.45869" lon="3.74869">
        <ele>1407.33</ele>
        <time>2023-09-13T08:36:38Z</time>
      </trkpt>
      <trkpt lat="44.4585" lon="3.74873">
        <ele>1405.33</ele>
        <time>2023-09-13T08:36:58Z</time>
      </trkpt>
      <trkpt lat="44.45832" lon="3.74881">
        <ele>1405.33</ele>
        <time>2023-09-13T08:37:14Z</time>
      </trkpt>
      <trkpt lat="44.45814" lon="3.74888">
        <ele>1405.33</ele>
        <time>2023-09-13T08:37:30Z</time>
      </trkpt>
      <trkpt lat="44.45796" lon="3.74897">
        <ele>1404.33</ele>
        <time>2023-09-13T08:37:46Z</time>
      </trkpt>
      <trkpt lat="44.45779" lon="3.74906">
        <ele>1402.33</ele>
        <time>2023-09-13T08:38:02Z</time>
      </trkpt>
      <trkpt lat="44.45761" lon="3.74915">
        <ele>1402.33</ele>
        <time>2023-09-13T08:38:18Z</time>
      </trkpt>
      <trkpt lat="44.45744" lon="3.74925">
        <ele>1402.33</ele>
        <time>2023-09-13T08:38:34Z</time>
      </trkpt>
      <trkpt lat="44.45725" lon="3.74932">
        <ele>1401.33</ele>
        <time>2023-09-13T08:38:50Z</time>
      </trkpt>
      <trkpt lat="44.45708" lon="3.74939">
        <ele>1402.33</ele>
        <time>2023-09-13T08:39:06Z</time>
      </trkpt>
      <trkpt lat="44.45688" lon="3.74948">
        <ele>1400.33</ele>
        <time>2023-09-13T08:39:26Z</time>
      </trkpt>
      <trkpt lat="44.45667" lon="3.74947">
        <ele>1401.33</ele>
        <time>2023-09-13T08:39:46Z</time>
      </trkpt>
      <trkpt lat="44.45645" lon="3.74948">
        <ele>1400.33</ele>
        <time>2023-09-13T08:40:06Z</time>
      </trkpt>
      <trkpt lat="44.45625" lon="3.74947">
        <ele>1400.33</ele>
        <time>2023-09-13T08:40:22Z</time>
      </trkpt>
      <trkpt lat="44.45603" lon="3.74945">
        <ele>1400.33</ele>
        <time>2023-09-13T08:40:42Z</time>
      </trkpt>
      <trkpt lat="44.45585" lon="3.74944">
        <ele>1400.33</ele>
        <time>2023-09-13T08:40:58Z</time>
      </trkpt>
      <trkpt lat="44.45562" lon="3.74942">
        <ele>1402.33</ele>
        <time>2023-09-13T08:41:18Z</time>
      </trkpt>
      <trkpt lat="44.45544" lon="3.74942">
        <ele>1403.33</ele>
        <time>2023-09-13T08:41:34Z</time>
      </trkpt>
      <trkpt lat="44.45522" lon="3.74939">
        <ele>1404.33</ele>
        <time>2023-09-13T08:41:54Z</time>
      </trkpt>
      <trkpt lat="44.455" lon="3.74938">
        <ele>1406.33</ele>
        <time>2023-09-13T08:42:14Z</time>
      </trkpt>
      <trkpt lat="44.45478" lon="3.74935">
        <ele>1406.33</ele>
        <time>2023-09-13T08:42:34Z</time>
      </trkpt>
      <trkpt lat="44.45456" lon="3.74934">
        <ele>1407.33</ele>
        <time>2023-09-13T08:42:54Z</time>
      </trkpt>
      <trkpt lat="44.45436" lon="3.74934">
        <ele>1410.33</ele>
        <time>2023-09-13T08:43:14Z</time>
      </trkpt>
      <trkpt lat="44.45416" lon="3.74931">
        <ele>1408.33</ele>
        <time>2023-09-13T08:43:50Z</time>
      </trkpt>
      <trkpt lat="44.45394" lon="3.74927">
        <ele>1409.33</ele>
        <time>2023-09-13T08:44:10Z</time>
      </trkpt>
      <trkpt lat="44.45373" lon="3.7492">
        <ele>1411.33</ele>
        <time>2023-09-13T08:44:30Z</time>
      </trkpt>
      <trkpt lat="44.45354" lon="3.74905">
        <ele>1412.33</ele>
        <time>2023-09-13T08:44:50Z</time>
      </trkpt>
      <trkpt lat="44.45336" lon="3.74894">
        <ele>1415.33</ele>
        <time>2023-09-13T08:45:10Z</time>
      </trkpt>
      <trkpt lat="44.45318" lon="3.74882">
        <ele>1415.33</ele>
        <time>2023-09-13T08:45:26Z</time>
      </trkpt>
      <trkpt lat="44.45306" lon="3.7486">
        <ele>1415.33</ele>
        <time>2023-09-13T08:45:46Z</time>
      </trkpt>
      <trkpt lat="44.45288" lon="3.74846">
        <ele>1419.33</ele>
        <time>2023-09-13T08:46:06Z</time>
      </trkpt>
      <trkpt lat="44.4527" lon="3.74833">
        <ele>1417.33</ele>
        <time>2023-09-13T08:50:38Z</time>
      </trkpt>
      <trkpt lat="44.4525" lon="3.74826">
        <ele>1414.33</ele>
        <time>2023-09-13T09:05:27Z</time>
      </trkpt>
      <trkpt lat="44.4523" lon="3.74815">
        <ele>1413.33</ele>
        <time>2023-09-13T09:05:56Z</time>
      </trkpt>
      <trkpt lat="44.45209" lon="3.74803">
        <ele>1411.33</ele>
        <time>2023-09-13T09:06:12Z</time>
      </trkpt>
      <trkpt lat="44.45188" lon="3.7479">
        <ele>1411.33</ele>
        <time>2023-09-13T09:06:28Z</time>
      </trkpt>
      <trkpt lat="44.4517" lon="3.74781">
        <ele>1411.33</ele>
        <time>2023-09-13T09:06:40Z</time>
      </trkpt>
      <trkpt lat="44.45153" lon="3.74772">
        <ele>1412.33</ele>
        <time>2023-09-13T09:06:52Z</time>
      </trkpt>
      <trkpt lat="44.45131" lon="3.7476">
        <ele>1412.33</ele>
        <time>2023-09-13T09:07:08Z</time>
      </trkpt>
      <trkpt lat="44.45108" lon="3.74752">
        <ele>1413.33</ele>
        <time>2023-09-13T09:07:24Z</time>
      </trkpt>
      <trkpt lat="44.45085" lon="3.74746">
        <ele>1416.33</ele>
        <time>2023-09-13T09:07:40Z</time>
      </trkpt>
      <trkpt lat="44.45062" lon="3.7474">
        <ele>1418.33</ele>
        <time>2023-09-13T09:07:56Z</time>
      </trkpt>
      <trkpt lat="44.45039" lon="3.74733">
        <ele>1419.33</ele>
        <time>2023-09-13T09:08:12Z</time>
      </trkpt>
      <trkpt lat="44.45018" lon="3.74727">
        <ele>1420.33</ele>
        <time>2023-09-13T09:08:28Z</time>
      </trkpt>
      <trkpt lat="44.44997" lon="3.74715">
        <ele>1422.33</ele>
        <time>2023-09-13T09:08:44Z</time>
      </trkpt>
      <trkpt lat="44.44975" lon="3.7471">
        <ele>1425.33</ele>
        <time>2023-09-13T09:09:00Z</time>
      </trkpt>
      <trkpt lat="44.44953" lon="3.74701">
        <ele>1423.33</ele>
        <time>2023-09-13T09:09:16Z</time>
      </trkpt>
      <trkpt lat="44.44931" lon="3.7469">
        <ele>1429.33</ele>
        <time>2023-09-13T09:09:32Z</time>
      </trkpt>
      <trkpt lat="44.44911" lon="3.74679">
        <ele>1433.33</ele>
        <time>2023-09-13T09:09:48Z</time>
      </trkpt>
      <trkpt lat="44.44889" lon="3.74671">
        <ele>1435.33</ele>
        <time>2023-09-13T09:10:04Z</time>
      </trkpt>
      <trkpt lat="44.44867" lon="3.74672">
        <ele>1437.33</ele>
        <time>2023-09-13T09:10:20Z</time>
      </trkpt>
      <trkpt lat="44.44844" lon="3.74672">
        <ele>1439.33</ele>
        <time>2023-09-13T09:10:36Z</time>
      </trkpt>
      <trkpt lat="44.44821" lon="3.74675">
        <ele>1440.33</ele>
        <time>2023-09-13T09:10:52Z</time>
      </trkpt>
      <trkpt lat="44.44802" lon="3.74675">
        <ele>1442.33</ele>
        <time>2023-09-13T09:11:04Z</time>
      </trkpt>
      <trkpt lat="44.44785" lon="3.7468">
        <ele>1442.33</ele>
        <time>2023-09-13T09:11:16Z</time>
      </trkpt>
      <trkpt lat="44.44761" lon="3.7468">
        <ele>1442.33</ele>
        <time>2023-09-13T09:11:32Z</time>
      </trkpt>
      <trkpt lat="44.44739" lon="3.74683">
        <ele>1443.33</ele>
        <time>2023-09-13T09:11:48Z</time>
      </trkpt>
      <trkpt lat="44.44717" lon="3.74689">
        <ele>1445.33</ele>
        <time>2023-09-13T09:12:04Z</time>
      </trkpt>
      <trkpt lat="44.44699" lon="3.74693">
        <ele>1446.33</ele>
        <time>2023-09-13T09:12:16Z</time>
      </trkpt>
      <trkpt lat="44.44678" lon="3.747">
        <ele>1448.33</ele>
        <time>2023-09-13T09:12:32Z</time>
      </trkpt>
      <trkpt lat="44.44657" lon="3.74707">
        <ele>1451.33</ele>
        <time>2023-09-13T09:12:48Z</time>
      </trkpt>
      <trkpt lat="44.44636" lon="3.74714">
        <ele>1453.33</ele>
        <time>2023-09-13T09:13:04Z</time>
      </trkpt>
      <trkpt lat="44.44616" lon="3.74722">
        <ele>1457.33</ele>
        <time>2023-09-13T09:13:20Z</time>
      </trkpt>
      <trkpt lat="44.44597" lon="3.74729">
        <ele>1462.33</ele>
        <time>2023-09-13T09:13:36Z</time>
      </trkpt>
      <trkpt lat="44.44577" lon="3.74739">
        <ele>1465.33</ele>
        <time>2023-09-13T09:13:52Z</time>
      </trkpt>
      <trkpt lat="44.44557" lon="3.74745">
        <ele>1469.33</ele>
        <time>2023-09-13T09:14:08Z</time>
      </trkpt>
      <trkpt lat="44.44535" lon="3.74757">
        <ele>1473.33</ele>
        <time>2023-09-13T09:14:28Z</time>
      </trkpt>
      <trkpt lat="44.44528" lon="3.74782">
        <ele>1476.33</ele>
        <time>2023-09-13T09:15:00Z</time>
      </trkpt>
      <trkpt lat="44.44515" lon="3.74799">
        <ele>1478.33</ele>
        <time>2023-09-13T09:19:32Z</time>
      </trkpt>
      <trkpt lat="44.44493" lon="3.74808">
        <ele>1480.33</ele>
        <time>2023-09-13T09:20:00Z</time>
      </trkpt>
      <trkpt lat="44.44473" lon="3.74813">
        <ele>1481.33</ele>
        <time>2023-09-13T09:20:24Z</time>
      </trkpt>
      <trkpt lat="44.44454" lon="3.74814">
        <ele>1485.33</ele>
        <time>2023-09-13T09:20:44Z</time>
      </trkpt>
      <trkpt lat="44.44435" lon="3.7482">
        <ele>1488.33</ele>
        <time>2023-09-13T09:21:08Z</time>
      </trkpt>
      <trkpt lat="44.44417" lon="3.74827">
        <ele>1490.33</ele>
        <time>2023-09-13T09:21:36Z</time>
      </trkpt>
      <trkpt lat="44.44399" lon="3.74833">
        <ele>1492.33</ele>
        <time>2023-09-13T09:21:56Z</time>
      </trkpt>
      <trkpt lat="44.44382" lon="3.74849">
        <ele>1494.33</ele>
        <time>2023-09-13T09:22:16Z</time>
      </trkpt>
      <trkpt lat="44.44367" lon="3.74866">
        <ele>1498.33</ele>
        <time>2023-09-13T09:22:36Z</time>
      </trkpt>
      <trkpt lat="44.44352" lon="3.74882">
        <ele>1499.33</ele>
        <time>2023-09-13T09:22:56Z</time>
      </trkpt>
      <trkpt lat="44.44331" lon="3.74895">
        <ele>1501.33</ele>
        <time>2023-09-13T09:23:16Z</time>
      </trkpt>
      <trkpt lat="44.44314" lon="3.74905">
        <ele>1504.33</ele>
        <time>2023-09-13T09:23:32Z</time>
      </trkpt>
      <trkpt lat="44.44294" lon="3.7492">
        <ele>1508.33</ele>
        <time>2023-09-13T09:23:52Z</time>
      </trkpt>
      <trkpt lat="44.44276" lon="3.7493">
        <ele>1510.33</ele>
        <time>2023-09-13T09:24:09Z</time>
      </trkpt>
      <trkpt lat="44.44257" lon="3.74939">
        <ele>1513.33</ele>
        <time>2023-09-13T09:24:25Z</time>
      </trkpt>
      <trkpt lat="44.44237" lon="3.74942">
        <ele>1514.33</ele>
        <time>2023-09-13T09:24:41Z</time>
      </trkpt>
      <trkpt lat="44.44218" lon="3.74947">
        <ele>1516.33</ele>
        <time>2023-09-13T09:24:57Z</time>
      </trkpt>
      <trkpt lat="44.44199" lon="3.74951">
        <ele>1518.33</ele>
        <time>2023-09-13T09:25:13Z</time>
      </trkpt>
      <trkpt lat="44.4418" lon="3.74951">
        <ele>1520.33</ele>
        <time>2023-09-13T09:25:29Z</time>
      </trkpt>
      <trkpt lat="44.44161" lon="3.74951">
        <ele>1521.33</ele>
        <time>2023-09-13T09:25:45Z</time>
      </trkpt>
      <trkpt lat="44.44142" lon="3.74948">
        <ele>1522.33</ele>
        <time>2023-09-13T09:26:01Z</time>
      </trkpt>
      <trkpt lat="44.4412" lon="3.74948">
        <ele>1524.33</ele>
        <time>2023-09-13T09:26:21Z</time>
      </trkpt>
      <trkpt lat="44.44098" lon="3.74944">
        <ele>1526.33</ele>
        <time>2023-09-13T09:26:39Z</time>
      </trkpt>
      <trkpt lat="44.44077" lon="3.74947">
        <ele>1529.33</ele>
        <time>2023-09-13T09:26:56Z</time>
      </trkpt>
      <trkpt lat="44.44057" lon="3.74952">
        <ele>1531.33</ele>
        <time>2023-09-13T09:27:12Z</time>
      </trkpt>
      <trkpt lat="44.44037" lon="3.74948">
        <ele>1531.33</ele>
        <time>2023-09-13T09:27:28Z</time>
      </trkpt>
      <trkpt lat="44.44017" lon="3.74946">
        <ele>1533.33</ele>
        <time>2023-09-13T09:27:44Z</time>
      </trkpt>
      <trkpt lat="44.43998" lon="3.74943">
        <ele>1534.33</ele>
        <time>2023-09-13T09:28:00Z</time>
      </trkpt>
      <trkpt lat="44.43977" lon="3.74941">
        <ele>1534.33</ele>
        <time>2023-09-13T09:28:20Z</time>
      </trkpt>
      <trkpt lat="44.43956" lon="3.74937">
        <ele>1535.33</ele>
        <time>2023-09-13T09:28:36Z</time>
      </trkpt>
      <trkpt lat="44.43936" lon="3.74938">
        <ele>1536.33</ele>
        <time>2023-09-13T09:28:52Z</time>
      </trkpt>
      <trkpt lat="44.43917" lon="3.74936">
        <ele>1537.33</ele>
        <time>2023-09-13T09:29:08Z</time>
      </trkpt>
      <trkpt lat="44.43899" lon="3.74935">
        <ele>1540.33</ele>
        <time>2023-09-13T09:29:24Z</time>
      </trkpt>
      <trkpt lat="44.43878" lon="3.74932">
        <ele>1541.33</ele>
        <time>2023-09-13T09:29:40Z</time>
      </trkpt>
      <trkpt lat="44.43856" lon="3.74933">
        <ele>1541.33</ele>
        <time>2023-09-13T09:30:00Z</time>
      </trkpt>
      <trkpt lat="44.43838" lon="3.74932">
        <ele>1543.33</ele>
        <time>2023-09-13T09:30:16Z</time>
      </trkpt>
      <trkpt lat="44.43816" lon="3.74927">
        <ele>1544.33</ele>
        <time>2023-09-13T09:30:36Z</time>
      </trkpt>
      <trkpt lat="44.43793" lon="3.74926">
        <ele>1545.33</ele>
        <time>2023-09-13T09:31:00Z</time>
      </trkpt>
      <trkpt lat="44.43774" lon="3.74926">
        <ele>1547.33</ele>
        <time>2023-09-13T09:31:16Z</time>
      </trkpt>
      <trkpt lat="44.43755" lon="3.74929">
        <ele>1549.33</ele>
        <time>2023-09-13T09:31:40Z</time>
      </trkpt>
      <trkpt lat="44.43735" lon="3.74926">
        <ele>1550.33</ele>
        <time>2023-09-13T09:32:12Z</time>
      </trkpt>
      <trkpt lat="44.43714" lon="3.74926">
        <ele>1551.33</ele>
        <time>2023-09-13T09:32:32Z</time>
      </trkpt>
      <trkpt lat="44.43691" lon="3.74924">
        <ele>1553.33</ele>
        <time>2023-09-13T09:32:52Z</time>
      </trkpt>
      <trkpt lat="44.43671" lon="3.74927">
        <ele>1555.33</ele>
        <time>2023-09-13T09:33:12Z</time>
      </trkpt>
      <trkpt lat="44.4365" lon="3.74926">
        <ele>1557.33</ele>
        <time>2023-09-13T09:33:36Z</time>
      </trkpt>
      <trkpt lat="44.43631" lon="3.74926">
        <ele>1559.33</ele>
        <time>2023-09-13T09:33:56Z</time>
      </trkpt>
      <trkpt lat="44.43612" lon="3.74929">
        <ele>1560.33</ele>
        <time>2023-09-13T09:34:16Z</time>
      </trkpt>
      <trkpt lat="44.43591" lon="3.74931">
        <ele>1562.33</ele>
        <time>2023-09-13T09:34:36Z</time>
      </trkpt>
      <trkpt lat="44.4357" lon="3.7493">
        <ele>1564.33</ele>
        <time>2023-09-13T09:34:56Z</time>
      </trkpt>
      <trkpt lat="44.43548" lon="3.74926">
        <ele>1565.33</ele>
        <time>2023-09-13T09:35:20Z</time>
      </trkpt>
      <trkpt lat="44.43528" lon="3.74921">
        <ele>1566.33</ele>
        <time>2023-09-13T09:35:40Z</time>
      </trkpt>
      <trkpt lat="44.43509" lon="3.74916">
        <ele>1566.33</ele>
        <time>2023-09-13T09:35:56Z</time>
      </trkpt>
      <trkpt lat="44.4349" lon="3.74907">
        <ele>1565.33</ele>
        <time>2023-09-13T09:36:32Z</time>
      </trkpt>
      <trkpt lat="44.43468" lon="3.74903">
        <ele>1566.33</ele>
        <time>2023-09-13T09:37:08Z</time>
      </trkpt>
      <trkpt lat="44.43448" lon="3.74899">
        <ele>1565.33</ele>
        <time>2023-09-13T09:37:24Z</time>
      </trkpt>
      <trkpt lat="44.43428" lon="3.74897">
        <ele>1565.33</ele>
        <time>2023-09-13T09:37:40Z</time>
      </trkpt>
      <trkpt lat="44.43407" lon="3.74893">
        <ele>1566.33</ele>
        <time>2023-09-13T09:37:56Z</time>
      </trkpt>
      <trkpt lat="44.43388" lon="3.74889">
        <ele>1567.33</ele>
        <time>2023-09-13T09:38:16Z</time>
      </trkpt>
      <trkpt lat="44.43369" lon="3.74886">
        <ele>1567.33</ele>
        <time>2023-09-13T09:38:32Z</time>
      </trkpt>
      <trkpt lat="44.43348" lon="3.74885">
        <ele>1569.33</ele>
        <time>2023-09-13T09:38:52Z</time>
      </trkpt>
      <trkpt lat="44.43329" lon="3.74885">
        <ele>1570.33</ele>
        <time>2023-09-13T09:39:08Z</time>
      </trkpt>
      <trkpt lat="44.43307" lon="3.74887">
        <ele>1572.33</ele>
        <time>2023-09-13T09:39:28Z</time>
      </trkpt>
      <trkpt lat="44.43287" lon="3.74891">
        <ele>1574.33</ele>
        <time>2023-09-13T09:39:48Z</time>
      </trkpt>
      <trkpt lat="44.43267" lon="3.74894">
        <ele>1575.33</ele>
        <time>2023-09-13T09:40:28Z</time>
      </trkpt>
      <trkpt lat="44.43249" lon="3.74899">
        <ele>1576.33</ele>
        <time>2023-09-13T09:40:44Z</time>
      </trkpt>
      <trkpt lat="44.43232" lon="3.74905">
        <ele>1578.33</ele>
        <time>2023-09-13T09:41:00Z</time>
      </trkpt>
      <trkpt lat="44.4321" lon="3.74913">
        <ele>1581.33</ele>
        <time>2023-09-13T09:41:20Z</time>
      </trkpt>
      <trkpt lat="44.43188" lon="3.74919">
        <ele>1582.33</ele>
        <time>2023-09-13T09:41:40Z</time>
      </trkpt>
      <trkpt lat="44.43166" lon="3.74922">
        <ele>1585.33</ele>
        <time>2023-09-13T09:42:00Z</time>
      </trkpt>
      <trkpt lat="44.43147" lon="3.74926">
        <ele>1587.33</ele>
        <time>2023-09-13T09:42:16Z</time>
      </trkpt>
      <trkpt lat="44.43128" lon="3.7493">
        <ele>1589.33</ele>
        <time>2023-09-13T09:42:32Z</time>
      </trkpt>
      <trkpt lat="44.4311" lon="3.74936">
        <ele>1591.33</ele>
        <time>2023-09-13T09:42:48Z</time>
      </trkpt>
      <trkpt lat="44.4309" lon="3.74944">
        <ele>1595.33</ele>
        <time>2023-09-13T09:43:08Z</time>
      </trkpt>
      <trkpt lat="44.43069" lon="3.74954">
        <ele>1597.33</ele>
        <time>2023-09-13T09:43:28Z</time>
      </trkpt>
      <trkpt lat="44.4305" lon="3.74957">
        <ele>1600.33</ele>
        <time>2023-09-13T09:43:44Z</time>
      </trkpt>
      <trkpt lat="44.43031" lon="3.74964">
        <ele>1601.33</ele>
        <time>2023-09-13T09:44:00Z</time>
      </trkpt>
      <trkpt lat="44.43014" lon="3.74977">
        <ele>1603.33</ele>
        <time>2023-09-13T09:44:16Z</time>
      </trkpt>
      <trkpt lat="44.42997" lon="3.74987">
        <ele>1604.33</ele>
        <time>2023-09-13T09:44:32Z</time>
      </trkpt>
      <trkpt lat="44.4298" lon="3.74993">
        <ele>1606.33</ele>
        <time>2023-09-13T09:44:48Z</time>
      </trkpt>
      <trkpt lat="44.42959" lon="3.75003">
        <ele>1607.69</ele>
        <time>2023-09-13T09:45:08Z</time>
      </trkpt>
      <trkpt lat="44.4294" lon="3.75011">
        <ele>1610.69</ele>
        <time>2023-09-13T09:45:28Z</time>
      </trkpt>
      <trkpt lat="44.42919" lon="3.75015">
        <ele>1612.69</ele>
        <time>2023-09-13T09:45:48Z</time>
      </trkpt>
      <trkpt lat="44.42897" lon="3.7502">
        <ele>1615.69</ele>
        <time>2023-09-13T09:46:08Z</time>
      </trkpt>
      <trkpt lat="44.42877" lon="3.75026">
        <ele>1617.69</ele>
        <time>2023-09-13T09:48:16Z</time>
      </trkpt>
      <trkpt lat="44.4286" lon="3.75039">
        <ele>1618.69</ele>
        <time>2023-09-13T09:48:36Z</time>
      </trkpt>
      <trkpt lat="44.42841" lon="3.75045">
        <ele>1621.69</ele>
        <time>2023-09-13T09:48:56Z</time>
      </trkpt>
      <trkpt lat="44.42822" lon="3.75052">
        <ele>1623.69</ele>
        <time>2023-09-13T09:49:16Z</time>
      </trkpt>
      <trkpt lat="44.42804" lon="3.75061">
        <ele>1625.69</ele>
        <time>2023-09-13T09:49:36Z</time>
      </trkpt>
      <trkpt lat="44.42784" lon="3.75071">
        <ele>1626.69</ele>
        <time>2023-09-13T09:49:56Z</time>
      </trkpt>
      <trkpt lat="44.42765" lon="3.75083">
        <ele>1627.69</ele>
        <time>2023-09-13T09:50:16Z</time>
      </trkpt>
      <trkpt lat="44.42748" lon="3.75092">
        <ele>1627.69</ele>
        <time>2023-09-13T09:50:32Z</time>
      </trkpt>
      <trkpt lat="44.42729" lon="3.75099">
        <ele>1628.69</ele>
        <time>2023-09-13T09:50:56Z</time>
      </trkpt>
      <trkpt lat="44.42711" lon="3.75108">
        <ele>1629.69</ele>
        <time>2023-09-13T09:51:12Z</time>
      </trkpt>
      <trkpt lat="44.42694" lon="3.75117">
        <ele>1629.69</ele>
        <time>2023-09-13T09:51:28Z</time>
      </trkpt>
      <trkpt lat="44.42676" lon="3.75122">
        <ele>1631.69</ele>
        <time>2023-09-13T09:51:44Z</time>
      </trkpt>
      <trkpt lat="44.42658" lon="3.75132">
        <ele>1633.69</ele>
        <time>2023-09-13T09:52:04Z</time>
      </trkpt>
      <trkpt lat="44.42639" lon="3.75143">
        <ele>1635.69</ele>
        <time>2023-09-13T09:53:52Z</time>
      </trkpt>
      <trkpt lat="44.42641" lon="3.75114">
        <ele>1635.69</ele>
        <time>2023-09-13T10:13:48Z</time>
      </trkpt>
      <trkpt lat="44.42644" lon="3.75086">
        <ele>1640.69</ele>
        <time>2023-09-13T10:14:08Z</time>
      </trkpt>
      <trkpt lat="44.4265" lon="3.75062">
        <ele>1639.69</ele>
        <time>2023-09-13T10:14:24Z</time>
      </trkpt>
      <trkpt lat="44.42649" lon="3.75036">
        <ele>1641.69</ele>
        <time>2023-09-13T10:14:40Z</time>
      </trkpt>
      <trkpt lat="44.42648" lon="3.75005">
        <ele>1643.69</ele>
        <time>2023-09-13T10:15:00Z</time>
      </trkpt>
      <trkpt lat="44.42649" lon="3.74976">
        <ele>1646.33</ele>
        <time>2023-09-13T10:15:20Z</time>
      </trkpt>
      <trkpt lat="44.42651" lon="3.74948">
        <ele>1649.33</ele>
        <time>2023-09-13T10:15:40Z</time>
      </trkpt>
      <trkpt lat="44.42655" lon="3.7492">
        <ele>1653.33</ele>
        <time>2023-09-13T10:16:04Z</time>
      </trkpt>
      <trkpt lat="44.42656" lon="3.74891">
        <ele>1656.33</ele>
        <time>2023-09-13T10:16:28Z</time>
      </trkpt>
      <trkpt lat="44.42657" lon="3.74862">
        <ele>1659.33</ele>
        <time>2023-09-13T10:16:56Z</time>
      </trkpt>
      <trkpt lat="44.42658" lon="3.74835">
        <ele>1661.33</ele>
        <time>2023-09-13T10:17:16Z</time>
      </trkpt>
      <trkpt lat="44.4266" lon="3.74809">
        <ele>1661.33</ele>
        <time>2023-09-13T10:17:36Z</time>
      </trkpt>
      <trkpt lat="44.42663" lon="3.74781">
        <ele>1665.33</ele>
        <time>2023-09-13T10:17:56Z</time>
      </trkpt>
      <trkpt lat="44.42666" lon="3.74752">
        <ele>1668.33</ele>
        <time>2023-09-13T10:18:16Z</time>
      </trkpt>
      <trkpt lat="44.42669" lon="3.74723">
        <ele>1668.33</ele>
        <time>2023-09-13T10:18:40Z</time>
      </trkpt>
      <trkpt lat="44.42671" lon="3.74695">
        <ele>1670.33</ele>
        <time>2023-09-13T10:19:08Z</time>
      </trkpt>
      <trkpt lat="44.42676" lon="3.74667">
        <ele>1674.33</ele>
        <time>2023-09-13T10:19:40Z</time>
      </trkpt>
      <trkpt lat="44.42683" lon="3.7464">
        <ele>1675.33</ele>
        <time>2023-09-13T10:20:00Z</time>
      </trkpt>
      <trkpt lat="44.42687" lon="3.74614">
        <ele>1679.33</ele>
        <time>2023-09-13T10:20:32Z</time>
      </trkpt>
      <trkpt lat="44.42695" lon="3.74589">
        <ele>1679.33</ele>
        <time>2023-09-13T10:21:00Z</time>
      </trkpt>
      <trkpt lat="44.4271" lon="3.74569">
        <ele>1682.33</ele>
        <time>2023-09-13T10:21:20Z</time>
      </trkpt>
      <trkpt lat="44.42727" lon="3.74553">
        <ele>1682.33</ele>
        <time>2023-09-13T10:21:40Z</time>
      </trkpt>
      <trkpt lat="44.42741" lon="3.74532">
        <ele>1683.33</ele>
        <time>2023-09-13T10:22:00Z</time>
      </trkpt>
      <trkpt lat="44.42752" lon="3.74511">
        <ele>1684.33</ele>
        <time>2023-09-13T10:22:50Z</time>
      </trkpt>
      <trkpt lat="44.42733" lon="3.74498">
        <ele>1684.33</ele>
        <time>2023-09-13T10:24:46Z</time>
      </trkpt>
      <trkpt lat="44.42718" lon="3.74476">
        <ele>1684.33</ele>
        <time>2023-09-13T10:26:18Z</time>
      </trkpt>
      <trkpt lat="44.42711" lon="3.74448">
        <ele>1683.33</ele>
        <time>2023-09-13T10:26:34Z</time>
      </trkpt>
      <trkpt lat="44.42706" lon="3.74421">
        <ele>1682.33</ele>
        <time>2023-09-13T10:26:50Z</time>
      </trkpt>
      <trkpt lat="44.42698" lon="3.74394">
        <ele>1681.33</ele>
        <time>2023-09-13T10:27:06Z</time>
      </trkpt>
      <trkpt lat="44.4269" lon="3.74366">
        <ele>1680.33</ele>
        <time>2023-09-13T10:27:22Z</time>
      </trkpt>
      <trkpt lat="44.42682" lon="3.74339">
        <ele>1678.33</ele>
        <time>2023-09-13T10:27:38Z</time>
      </trkpt>
      <trkpt lat="44.42676" lon="3.7431">
        <ele>1677.33</ele>
        <time>2023-09-13T10:27:54Z</time>
      </trkpt>
      <trkpt lat="44.42669" lon="3.74285">
        <ele>1677.33</ele>
        <time>2023-09-13T10:28:10Z</time>
      </trkpt>
      <trkpt lat="44.42662" lon="3.74256">
        <ele>1676.33</ele>
        <time>2023-09-13T10:28:30Z</time>
      </trkpt>
      <trkpt lat="44.42658" lon="3.7423">
        <ele>1678.33</ele>
        <time>2023-09-13T10:28:58Z</time>
      </trkpt>
      <trkpt lat="44.42656" lon="3.74205">
        <ele>1680.33</ele>
        <time>2023-09-13T10:29:30Z</time>
      </trkpt>
      <trkpt lat="44.4265" lon="3.74176">
        <ele>1682.33</ele>
        <time>2023-09-13T10:29:58Z</time>
      </trkpt>
      <trkpt lat="44.42643" lon="3.7415">
        <ele>1683.33</ele>
        <time>2023-09-13T10:30:14Z</time>
      </trkpt>
      <trkpt lat="44.42639" lon="3.74125">
        <ele>1684.33</ele>
        <time>2023-09-13T10:30:30Z</time>
      </trkpt>
      <trkpt lat="44.42632" lon="3.74095">
        <ele>1686.33</ele>
        <time>2023-09-13T10:30:50Z</time>
      </trkpt>
      <trkpt lat="44.42628" lon="3.74069">
        <ele>1688.33</ele>
        <time>2023-09-13T10:31:10Z</time>
      </trkpt>
      <trkpt lat="44.42624" lon="3.74044">
        <ele>1691.33</ele>
        <time>2023-09-13T10:31:26Z</time>
      </trkpt>
      <trkpt lat="44.42619" lon="3.74017">
        <ele>1693.33</ele>
        <time>2023-09-13T10:31:42Z</time>
      </trkpt>
      <trkpt lat="44.42615" lon="3.73991">
        <ele>1694.33</ele>
        <time>2023-09-13T10:31:58Z</time>
      </trkpt>
      <trkpt lat="44.42599" lon="3.73973">
        <ele>1696.33</ele>
        <time>2023-09-13T10:33:02Z</time>
      </trkpt>
      <trkpt lat="44.42583" lon="3.7396">
        <ele>1697.33</ele>
        <time>2023-09-13T10:33:26Z</time>
      </trkpt>
      <trkpt lat="44.42591" lon="3.73933">
        <ele>1696.33</ele>
        <time>2023-09-13T10:34:14Z</time>
      </trkpt>
      <trkpt lat="44.42584" lon="3.73904">
        <ele>1697.33</ele>
        <time>2023-09-13T10:34:54Z</time>
      </trkpt>
      <trkpt lat="44.42563" lon="3.73908">
        <ele>1700.33</ele>
        <time>2023-09-13T10:35:38Z</time>
      </trkpt>
      <trkpt lat="44.42545" lon="3.73903">
        <ele>1699.33</ele>
        <time>2023-09-13T10:36:02Z</time>
      </trkpt>
      <trkpt lat="44.42527" lon="3.73896">
        <ele>1698.33</ele>
        <time>2023-09-13T10:36:26Z</time>
      </trkpt>
      <trkpt lat="44.42509" lon="3.73889">
        <ele>1696.33</ele>
        <time>2023-09-13T10:36:42Z</time>
      </trkpt>
      <trkpt lat="44.42487" lon="3.73885">
        <ele>1694.33</ele>
        <time>2023-09-13T10:37:02Z</time>
      </trkpt>
      <trkpt lat="44.42466" lon="3.73879">
        <ele>1692.33</ele>
        <time>2023-09-13T10:37:22Z</time>
      </trkpt>
      <trkpt lat="44.42447" lon="3.7388">
        <ele>1691.33</ele>
        <time>2023-09-13T10:37:38Z</time>
      </trkpt>
      <trkpt lat="44.42429" lon="3.73879">
        <ele>1686.33</ele>
        <time>2023-09-13T10:37:54Z</time>
      </trkpt>
      <trkpt lat="44.42409" lon="3.73874">
        <ele>1684.33</ele>
        <time>2023-09-13T10:38:22Z</time>
      </trkpt>
      <trkpt lat="44.42387" lon="3.73874">
        <ele>1681.33</ele>
        <time>2023-09-13T10:38:42Z</time>
      </trkpt>
      <trkpt lat="44.42366" lon="3.73873">
        <ele>1679.33</ele>
        <time>2023-09-13T10:39:10Z</time>
      </trkpt>
      <trkpt lat="44.42347" lon="3.73877">
        <ele>1677.33</ele>
        <time>2023-09-13T10:39:26Z</time>
      </trkpt>
      <trkpt lat="44.42328" lon="3.73879">
        <ele>1676.33</ele>
        <time>2023-09-13T10:39:42Z</time>
      </trkpt>
      <trkpt lat="44.4231" lon="3.73881">
        <ele>1671.33</ele>
        <time>2023-09-13T10:39:58Z</time>
      </trkpt>
      <trkpt lat="44.42288" lon="3.73886">
        <ele>1666.33</ele>
        <time>2023-09-13T10:40:18Z</time>
      </trkpt>
      <trkpt lat="44.42269" lon="3.73892">
        <ele>1664.33</ele>
        <time>2023-09-13T10:40:46Z</time>
      </trkpt>
      <trkpt lat="44.42266" lon="3.73921">
        <ele>1661.33</ele>
        <time>2023-09-13T10:41:10Z</time>
      </trkpt>
      <trkpt lat="44.42262" lon="3.73952">
        <ele>1663.33</ele>
        <time>2023-09-13T10:42:30Z</time>
      </trkpt>
      <trkpt lat="44.42257" lon="3.73978">
        <ele>1665.33</ele>
        <time>2023-09-13T10:42:46Z</time>
      </trkpt>
      <trkpt lat="44.42251" lon="3.74007">
        <ele>1664.33</ele>
        <time>2023-09-13T10:45:18Z</time>
      </trkpt>
      <trkpt lat="44.42244" lon="3.74031">
        <ele>1664.33</ele>
        <time>2023-09-13T10:45:34Z</time>
      </trkpt>
      <trkpt lat="44.42236" lon="3.74054">
        <ele>1664.33</ele>
        <time>2023-09-13T10:45:50Z</time>
      </trkpt>
      <trkpt lat="44.42228" lon="3.74078">
        <ele>1662.33</ele>
        <time>2023-09-13T10:46:06Z</time>
      </trkpt>
      <trkpt lat="44.4222" lon="3.74105">
        <ele>1659.33</ele>
        <time>2023-09-13T10:47:02Z</time>
      </trkpt>
      <trkpt lat="44.42207" lon="3.74126">
        <ele>1655.33</ele>
        <time>2023-09-13T10:47:46Z</time>
      </trkpt>
      <trkpt lat="44.42192" lon="3.74145">
        <ele>1659.33</ele>
        <time>2023-09-13T10:49:58Z</time>
      </trkpt>
      <trkpt lat="44.42175" lon="3.74165">
        <ele>1659.33</ele>
        <time>2023-09-13T10:50:15Z</time>
      </trkpt>
      <trkpt lat="44.42158" lon="3.74184">
        <ele>1658.33</ele>
        <time>2023-09-13T10:50:47Z</time>
      </trkpt>
      <trkpt lat="44.42144" lon="3.74201">
        <ele>1660.33</ele>
        <time>2023-09-13T10:51:03Z</time>
      </trkpt>
      <trkpt lat="44.42136" lon="3.74225">
        <ele>1660.33</ele>
        <time>2023-09-13T10:51:19Z</time>
      </trkpt>
      <trkpt lat="44.42135" lon="3.74254">
        <ele>1658.33</ele>
        <time>2023-09-13T10:51:35Z</time>
      </trkpt>
      <trkpt lat="44.42153" lon="3.74271">
        <ele>1657.33</ele>
        <time>2023-09-13T10:51:55Z</time>
      </trkpt>
      <trkpt lat="44.42171" lon="3.74279">
        <ele>1656.33</ele>
        <time>2023-09-13T10:52:11Z</time>
      </trkpt>
      <trkpt lat="44.4219" lon="3.74283">
        <ele>1654.33</ele>
        <time>2023-09-13T10:52:27Z</time>
      </trkpt>
      <trkpt lat="44.42208" lon="3.74288">
        <ele>1656.33</ele>
        <time>2023-09-13T10:52:43Z</time>
      </trkpt>
      <trkpt lat="44.42227" lon="3.7429">
        <ele>1656.33</ele>
        <time>2023-09-13T10:52:59Z</time>
      </trkpt>
      <trkpt lat="44.42246" lon="3.74293">
        <ele>1655.33</ele>
        <time>2023-09-13T10:53:15Z</time>
      </trkpt>
      <trkpt lat="44.42265" lon="3.74294">
        <ele>1655.33</ele>
        <time>2023-09-13T10:53:51Z</time>
      </trkpt>
      <trkpt lat="44.42287" lon="3.74291">
        <ele>1657.33</ele>
        <time>2023-09-13T10:54:15Z</time>
      </trkpt>
      <trkpt lat="44.42307" lon="3.74292">
        <ele>1656.33</ele>
        <time>2023-09-13T10:54:31Z</time>
      </trkpt>
      <trkpt lat="44.42327" lon="3.74291">
        <ele>1656.33</ele>
        <time>2023-09-13T10:54:47Z</time>
      </trkpt>
      <trkpt lat="44.42345" lon="3.74294">
        <ele>1657.33</ele>
        <time>2023-09-13T10:55:03Z</time>
      </trkpt>
      <trkpt lat="44.42365" lon="3.74299">
        <ele>1657.33</ele>
        <time>2023-09-13T10:55:19Z</time>
      </trkpt>
      <trkpt lat="44.42387" lon="3.74306">
        <ele>1655.33</ele>
        <time>2023-09-13T10:55:39Z</time>
      </trkpt>
      <trkpt lat="44.42407" lon="3.74312">
        <ele>1656.33</ele>
        <time>2023-09-13T10:55:55Z</time>
      </trkpt>
      <trkpt lat="44.42425" lon="3.74321">
        <ele>1657.33</ele>
        <time>2023-09-13T10:56:11Z</time>
      </trkpt>
      <trkpt lat="44.42445" lon="3.74333">
        <ele>1656.33</ele>
        <time>2023-09-13T10:56:27Z</time>
      </trkpt>
      <trkpt lat="44.42462" lon="3.74347">
        <ele>1657.33</ele>
        <time>2023-09-13T10:56:43Z</time>
      </trkpt>
      <trkpt lat="44.42478" lon="3.7437">
        <ele>1658.33</ele>
        <time>2023-09-13T10:56:59Z</time>
      </trkpt>
      <trkpt lat="44.42487" lon="3.74396">
        <ele>1657.33</ele>
        <time>2023-09-13T10:57:15Z</time>
      </trkpt>
      <trkpt lat="44.42489" lon="3.74424">
        <ele>1657.33</ele>
        <time>2023-09-13T10:57:31Z</time>
      </trkpt>
      <trkpt lat="44.42488" lon="3.74453">
        <ele>1657.33</ele>
        <time>2023-09-13T10:57:47Z</time>
      </trkpt>
      <trkpt lat="44.42484" lon="3.74481">
        <ele>1656.33</ele>
        <time>2023-09-13T10:58:03Z</time>
      </trkpt>
      <trkpt lat="44.42473" lon="3.7451">
        <ele>1657.33</ele>
        <time>2023-09-13T10:58:19Z</time>
      </trkpt>
      <trkpt lat="44.42467" lon="3.74538">
        <ele>1655.33</ele>
        <time>2023-09-13T10:58:35Z</time>
      </trkpt>
      <trkpt lat="44.42461" lon="3.74568">
        <ele>1653.33</ele>
        <time>2023-09-13T10:58:51Z</time>
      </trkpt>
      <trkpt lat="44.42453" lon="3.74596">
        <ele>1653.33</ele>
        <time>2023-09-13T10:59:07Z</time>
      </trkpt>
      <trkpt lat="44.42445" lon="3.74619">
        <ele>1654.33</ele>
        <time>2023-09-13T10:59:19Z</time>
      </trkpt>
      <trkpt lat="44.42438" lon="3.74645">
        <ele>1654.33</ele>
        <time>2023-09-13T10:59:35Z</time>
      </trkpt>
      <trkpt lat="44.42432" lon="3.74677">
        <ele>1653.33</ele>
        <time>2023-09-13T10:59:51Z</time>
      </trkpt>
      <trkpt lat="44.42425" lon="3.74704">
        <ele>1651.33</ele>
        <time>2023-09-13T11:00:07Z</time>
      </trkpt>
      <trkpt lat="44.42419" lon="3.74733">
        <ele>1650.33</ele>
        <time>2023-09-13T11:00:23Z</time>
      </trkpt>
      <trkpt lat="44.42414" lon="3.74764">
        <ele>1650.33</ele>
        <time>2023-09-13T11:00:39Z</time>
      </trkpt>
      <trkpt lat="44.4241" lon="3.74797">
        <ele>1649.33</ele>
        <time>2023-09-13T11:00:55Z</time>
      </trkpt>
      <trkpt lat="44.42409" lon="3.74828">
        <ele>1646.33</ele>
        <time>2023-09-13T11:01:11Z</time>
      </trkpt>
      <trkpt lat="44.42412" lon="3.74853">
        <ele>1645.33</ele>
        <time>2023-09-13T11:01:23Z</time>
      </trkpt>
      <trkpt lat="44.42418" lon="3.74884">
        <ele>1643.33</ele>
        <time>2023-09-13T11:01:39Z</time>
      </trkpt>
      <trkpt lat="44.42423" lon="3.74914">
        <ele>1642.33</ele>
        <time>2023-09-13T11:01:55Z</time>
      </trkpt>
      <trkpt lat="44.42432" lon="3.74944">
        <ele>1642.33</ele>
        <time>2023-09-13T11:02:11Z</time>
      </trkpt>
      <trkpt lat="44.42443" lon="3.74971">
        <ele>1639.33</ele>
        <time>2023-09-13T11:02:27Z</time>
      </trkpt>
      <trkpt lat="44.42451" lon="3.74995">
        <ele>1638.33</ele>
        <time>2023-09-13T11:02:39Z</time>
      </trkpt>
      <trkpt lat="44.42462" lon="3.75022">
        <ele>1638.69</ele>
        <time>2023-09-13T11:02:55Z</time>
      </trkpt>
      <trkpt lat="44.42471" lon="3.75051">
        <ele>1637.69</ele>
        <time>2023-09-13T11:03:11Z</time>
      </trkpt>
      <trkpt lat="44.42483" lon="3.75073">
        <ele>1634.69</ele>
        <time>2023-09-13T11:04:03Z</time>
      </trkpt>
      <trkpt lat="44.4249" lon="3.75104">
        <ele>1634.69</ele>
        <time>2023-09-13T11:04:19Z</time>
      </trkpt>
      <trkpt lat="44.42494" lon="3.75133">
        <ele>1634.69</ele>
        <time>2023-09-13T11:04:36Z</time>
      </trkpt>
      <trkpt lat="44.42479" lon="3.75149">
        <ele>1634.69</ele>
        <time>2023-09-13T11:05:08Z</time>
      </trkpt>
      <trkpt lat="44.42458" lon="3.75152">
        <ele>1634.69</ele>
        <time>2023-09-13T11:05:24Z</time>
      </trkpt>
      <trkpt lat="44.42439" lon="3.75155">
        <ele>1631.69</ele>
        <time>2023-09-13T11:05:40Z</time>
      </trkpt>
      <trkpt lat="44.4242" lon="3.75155">
        <ele>1627.69</ele>
        <time>2023-09-13T11:06:00Z</time>
      </trkpt>
      <trkpt lat="44.42402" lon="3.75148">
        <ele>1625.69</ele>
        <time>2023-09-13T11:06:20Z</time>
      </trkpt>
      <trkpt lat="44.42383" lon="3.75139">
        <ele>1622.69</ele>
        <time>2023-09-13T11:06:40Z</time>
      </trkpt>
      <trkpt lat="44.42364" lon="3.75138">
        <ele>1621.69</ele>
        <time>2023-09-13T11:07:00Z</time>
      </trkpt>
      <trkpt lat="44.42344" lon="3.75134">
        <ele>1620.69</ele>
        <time>2023-09-13T11:07:16Z</time>
      </trkpt>
      <trkpt lat="44.42325" lon="3.75133">
        <ele>1620.69</ele>
        <time>2023-09-13T11:07:36Z</time>
      </trkpt>
      <trkpt lat="44.42305" lon="3.7513">
        <ele>1614.69</ele>
        <time>2023-09-13T11:07:56Z</time>
      </trkpt>
      <trkpt lat="44.42286" lon="3.75118">
        <ele>1613.69</ele>
        <time>2023-09-13T11:08:16Z</time>
      </trkpt>
      <trkpt lat="44.42267" lon="3.75113">
        <ele>1606.69</ele>
        <time>2023-09-13T11:09:08Z</time>
      </trkpt>
      <trkpt lat="44.42249" lon="3.75102">
        <ele>1600.69</ele>
        <time>2023-09-13T11:09:32Z</time>
      </trkpt>
      <trkpt lat="44.42231" lon="3.75092">
        <ele>1596.69</ele>
        <time>2023-09-13T11:09:48Z</time>
      </trkpt>
      <trkpt lat="44.42211" lon="3.75086">
        <ele>1593.69</ele>
        <time>2023-09-13T11:10:20Z</time>
      </trkpt>
      <trkpt lat="44.42193" lon="3.75087">
        <ele>1590.69</ele>
        <time>2023-09-13T11:10:40Z</time>
      </trkpt>
      <trkpt lat="44.42174" lon="3.75083">
        <ele>1589.69</ele>
        <time>2023-09-13T11:11:04Z</time>
      </trkpt>
      <trkpt lat="44.42153" lon="3.75084">
        <ele>1585.69</ele>
        <time>2023-09-13T11:11:28Z</time>
      </trkpt>
      <trkpt lat="44.42134" lon="3.75081">
        <ele>1579.69</ele>
        <time>2023-09-13T11:11:48Z</time>
      </trkpt>
      <trkpt lat="44.4212" lon="3.75064">
        <ele>1570.69</ele>
        <time>2023-09-13T11:13:24Z</time>
      </trkpt>
      <trkpt lat="44.42107" lon="3.75046">
        <ele>1571.69</ele>
        <time>2023-09-13T11:30:06Z</time>
      </trkpt>
      <trkpt lat="44.42105" lon="3.75056">
        <ele>1561.69</ele>
        <time>2023-09-13T11:50:47Z</time>
      </trkpt>
      <trkpt lat="44.42085" lon="3.7506">
        <ele>1557.69</ele>
        <time>2023-09-13T11:51:11Z</time>
      </trkpt>
      <trkpt lat="44.42065" lon="3.75066">
        <ele>1552.69</ele>
        <time>2023-09-13T11:51:35Z</time>
      </trkpt>
      <trkpt lat="44.42046" lon="3.75069">
        <ele>1548.69</ele>
        <time>2023-09-13T11:52:04Z</time>
      </trkpt>
      <trkpt lat="44.42026" lon="3.75074">
        <ele>1546.69</ele>
        <time>2023-09-13T11:52:24Z</time>
      </trkpt>
      <trkpt lat="44.42036" lon="3.75047">
        <ele>1542.69</ele>
        <time>2023-09-13T11:52:48Z</time>
      </trkpt>
      <trkpt lat="44.42042" lon="3.7502">
        <ele>1542.69</ele>
        <time>2023-09-13T11:53:08Z</time>
      </trkpt>
      <trkpt lat="44.42022" lon="3.75025">
        <ele>1535.69</ele>
        <time>2023-09-13T11:53:28Z</time>
      </trkpt>
      <trkpt lat="44.42004" lon="3.75035">
        <ele>1532.69</ele>
        <time>2023-09-13T11:53:48Z</time>
      </trkpt>
      <trkpt lat="44.42001" lon="3.7501">
        <ele>1528.69</ele>
        <time>2023-09-13T11:54:32Z</time>
      </trkpt>
      <trkpt lat="44.41984" lon="3.75018">
        <ele>1524.69</ele>
        <time>2023-09-13T11:54:52Z</time>
      </trkpt>
      <trkpt lat="44.41966" lon="3.75024">
        <ele>1520.69</ele>
        <time>2023-09-13T11:55:20Z</time>
      </trkpt>
      <trkpt lat="44.41947" lon="3.75027">
        <ele>1519.69</ele>
        <time>2023-09-13T11:55:44Z</time>
      </trkpt>
      <trkpt lat="44.4193" lon="3.75037">
        <ele>1513.69</ele>
        <time>2023-09-13T11:56:12Z</time>
      </trkpt>
      <trkpt lat="44.41911" lon="3.75026">
        <ele>1506.69</ele>
        <time>2023-09-13T11:57:04Z</time>
      </trkpt>
      <trkpt lat="44.41903" lon="3.75003">
        <ele>1496.69</ele>
        <time>2023-09-13T11:58:00Z</time>
      </trkpt>
      <trkpt lat="44.41915" lon="3.74979">
        <ele>1495.33</ele>
        <time>2023-09-13T11:58:20Z</time>
      </trkpt>
      <trkpt lat="44.41894" lon="3.74974">
        <ele>1489.33</ele>
        <time>2023-09-13T11:59:00Z</time>
      </trkpt>
      <trkpt lat="44.41891" lon="3.74946">
        <ele>1482.33</ele>
        <time>2023-09-13T11:59:32Z</time>
      </trkpt>
      <trkpt lat="44.41869" lon="3.74941">
        <ele>1479.33</ele>
        <time>2023-09-13T11:59:56Z</time>
      </trkpt>
      <trkpt lat="44.4185" lon="3.74943">
        <ele>1475.33</ele>
        <time>2023-09-13T12:00:20Z</time>
      </trkpt>
      <trkpt lat="44.41831" lon="3.74946">
        <ele>1472.33</ele>
        <time>2023-09-13T12:00:36Z</time>
      </trkpt>
      <trkpt lat="44.41816" lon="3.74965">
        <ele>1469.33</ele>
        <time>2023-09-13T12:01:04Z</time>
      </trkpt>
      <trkpt lat="44.41799" lon="3.74973">
        <ele>1467.33</ele>
        <time>2023-09-13T12:01:24Z</time>
      </trkpt>
      <trkpt lat="44.41782" lon="3.74984">
        <ele>1462.33</ele>
        <time>2023-09-13T12:01:40Z</time>
      </trkpt>
      <trkpt lat="44.41764" lon="3.7499">
        <ele>1462.33</ele>
        <time>2023-09-13T12:02:04Z</time>
      </trkpt>
      <trkpt lat="44.41747" lon="3.74998">
        <ele>1458.33</ele>
        <time>2023-09-13T12:02:24Z</time>
      </trkpt>
      <trkpt lat="44.41738" lon="3.74971">
        <ele>1453.33</ele>
        <time>2023-09-13T12:02:52Z</time>
      </trkpt>
      <trkpt lat="44.41717" lon="3.74979">
        <ele>1448.33</ele>
        <time>2023-09-13T12:03:16Z</time>
      </trkpt>
      <trkpt lat="44.41701" lon="3.74991">
        <ele>1446.33</ele>
        <time>2023-09-13T12:03:32Z</time>
      </trkpt>
      <trkpt lat="44.41679" lon="3.74995">
        <ele>1445.33</ele>
        <time>2023-09-13T12:03:48Z</time>
      </trkpt>
      <trkpt lat="44.41658" lon="3.74998">
        <ele>1442.33</ele>
        <time>2023-09-13T12:04:12Z</time>
      </trkpt>
      <trkpt lat="44.41639" lon="3.75">
        <ele>1437.69</ele>
        <time>2023-09-13T12:04:32Z</time>
      </trkpt>
      <trkpt lat="44.4162" lon="3.74995">
        <ele>1432.33</ele>
        <time>2023-09-13T12:05:04Z</time>
      </trkpt>
      <trkpt lat="44.416" lon="3.75003">
        <ele>1431.69</ele>
        <time>2023-09-13T12:05:32Z</time>
      </trkpt>
      <trkpt lat="44.41582" lon="3.75004">
        <ele>1428.69</ele>
        <time>2023-09-13T12:05:56Z</time>
      </trkpt>
      <trkpt lat="44.41562" lon="3.74999">
        <ele>1424.33</ele>
        <time>2023-09-13T12:06:20Z</time>
      </trkpt>
      <trkpt lat="44.41542" lon="3.74993">
        <ele>1418.33</ele>
        <time>2023-09-13T12:06:52Z</time>
      </trkpt>
      <trkpt lat="44.41521" lon="3.74997">
        <ele>1416.33</ele>
        <time>2023-09-13T12:07:16Z</time>
      </trkpt>
      <trkpt lat="44.41502" lon="3.74998">
        <ele>1414.33</ele>
        <time>2023-09-13T12:07:44Z</time>
      </trkpt>
      <trkpt lat="44.41482" lon="3.7501">
        <ele>1411.69</ele>
        <time>2023-09-13T12:08:16Z</time>
      </trkpt>
      <trkpt lat="44.4146" lon="3.7501">
        <ele>1408.69</ele>
        <time>2023-09-13T12:08:36Z</time>
      </trkpt>
      <trkpt lat="44.41439" lon="3.75013">
        <ele>1403.69</ele>
        <time>2023-09-13T12:09:08Z</time>
      </trkpt>
      <trkpt lat="44.41421" lon="3.75018">
        <ele>1398.69</ele>
        <time>2023-09-13T12:09:36Z</time>
      </trkpt>
      <trkpt lat="44.41403" lon="3.75027">
        <ele>1392.69</ele>
        <time>2023-09-13T12:09:56Z</time>
      </trkpt>
      <trkpt lat="44.41384" lon="3.75034">
        <ele>1390.69</ele>
        <time>2023-09-13T12:10:16Z</time>
      </trkpt>
      <trkpt lat="44.41364" lon="3.75036">
        <ele>1387.69</ele>
        <time>2023-09-13T12:10:36Z</time>
      </trkpt>
      <trkpt lat="44.41344" lon="3.75033">
        <ele>1384.69</ele>
        <time>2023-09-13T12:10:56Z</time>
      </trkpt>
      <trkpt lat="44.41323" lon="3.75021">
        <ele>1380.69</ele>
        <time>2023-09-13T12:11:16Z</time>
      </trkpt>
      <trkpt lat="44.41302" lon="3.75023">
        <ele>1378.69</ele>
        <time>2023-09-13T12:11:36Z</time>
      </trkpt>
      <trkpt lat="44.41282" lon="3.75025">
        <ele>1373.69</ele>
        <time>2023-09-13T12:12:00Z</time>
      </trkpt>
      <trkpt lat="44.41262" lon="3.75026">
        <ele>1373.69</ele>
        <time>2023-09-13T12:12:20Z</time>
      </trkpt>
      <trkpt lat="44.41242" lon="3.75025">
        <ele>1369.69</ele>
        <time>2023-09-13T12:12:40Z</time>
      </trkpt>
      <trkpt lat="44.41225" lon="3.75032">
        <ele>1364.69</ele>
        <time>2023-09-13T12:13:00Z</time>
      </trkpt>
      <trkpt lat="44.41206" lon="3.75045">
        <ele>1363.69</ele>
        <time>2023-09-13T12:13:24Z</time>
      </trkpt>
      <trkpt lat="44.41184" lon="3.75047">
        <ele>1361.69</ele>
        <time>2023-09-13T12:13:48Z</time>
      </trkpt>
      <trkpt lat="44.41166" lon="3.75042">
        <ele>1358.69</ele>
        <time>2023-09-13T12:14:12Z</time>
      </trkpt>
      <trkpt lat="44.41144" lon="3.75043">
        <ele>1357.69</ele>
        <time>2023-09-13T12:14:37Z</time>
      </trkpt>
      <trkpt lat="44.41126" lon="3.75048">
        <ele>1355.69</ele>
        <time>2023-09-13T12:14:58Z</time>
      </trkpt>
      <trkpt lat="44.41107" lon="3.75056">
        <ele>1351.69</ele>
        <time>2023-09-13T12:15:14Z</time>
      </trkpt>
      <trkpt lat="44.41087" lon="3.75056">
        <ele>1347.69</ele>
        <time>2023-09-13T12:15:34Z</time>
      </trkpt>
      <trkpt lat="44.41068" lon="3.75057">
        <ele>1343.69</ele>
        <time>2023-09-13T12:15:50Z</time>
      </trkpt>
      <trkpt lat="44.41049" lon="3.75056">
        <ele>1341.69</ele>
        <time>2023-09-13T12:16:06Z</time>
      </trkpt>
      <trkpt lat="44.41027" lon="3.75054">
        <ele>1338.69</ele>
        <time>2023-09-13T12:16:34Z</time>
      </trkpt>
      <trkpt lat="44.41007" lon="3.75053">
        <ele>1337.69</ele>
        <time>2023-09-13T12:16:54Z</time>
      </trkpt>
      <trkpt lat="44.40989" lon="3.75059">
        <ele>1335.69</ele>
        <time>2023-09-13T12:17:14Z</time>
      </trkpt>
      <trkpt lat="44.4097" lon="3.75054">
        <ele>1332.69</ele>
        <time>2023-09-13T12:17:38Z</time>
      </trkpt>
      <trkpt lat="44.40947" lon="3.75056">
        <ele>1327.69</ele>
        <time>2023-09-13T12:18:02Z</time>
      </trkpt>
      <trkpt lat="44.40931" lon="3.75066">
        <ele>1324.69</ele>
        <time>2023-09-13T12:18:18Z</time>
      </trkpt>
      <trkpt lat="44.40915" lon="3.75084">
        <ele>1319.69</ele>
        <time>2023-09-13T12:18:54Z</time>
      </trkpt>
      <trkpt lat="44.40898" lon="3.75093">
        <ele>1317.69</ele>
        <time>2023-09-13T12:19:26Z</time>
      </trkpt>
      <trkpt lat="44.40882" lon="3.75081">
        <ele>1312.69</ele>
        <time>2023-09-13T12:19:46Z</time>
      </trkpt>
      <trkpt lat="44.40863" lon="3.75076">
        <ele>1307.69</ele>
        <time>2023-09-13T12:23:38Z</time>
      </trkpt>
      <trkpt lat="44.40844" lon="3.75069">
        <ele>1306.69</ele>
        <time>2023-09-13T12:24:18Z</time>
      </trkpt>
      <trkpt lat="44.40823" lon="3.7506">
        <ele>1305.69</ele>
        <time>2023-09-13T12:24:42Z</time>
      </trkpt>
      <trkpt lat="44.40802" lon="3.75057">
        <ele>1302.69</ele>
        <time>2023-09-13T12:25:02Z</time>
      </trkpt>
      <trkpt lat="44.40784" lon="3.75062">
        <ele>1302.69</ele>
        <time>2023-09-13T12:25:18Z</time>
      </trkpt>
      <trkpt lat="44.40766" lon="3.75062">
        <ele>1300.69</ele>
        <time>2023-09-13T12:25:34Z</time>
      </trkpt>
      <trkpt lat="44.40745" lon="3.7506">
        <ele>1298.69</ele>
        <time>2023-09-13T12:25:54Z</time>
      </trkpt>
      <trkpt lat="44.40724" lon="3.75051">
        <ele>1296.69</ele>
        <time>2023-09-13T12:26:14Z</time>
      </trkpt>
      <trkpt lat="44.40709" lon="3.75037">
        <ele>1295.69</ele>
        <time>2023-09-13T12:26:54Z</time>
      </trkpt>
      <trkpt lat="44.40691" lon="3.75027">
        <ele>1293.69</ele>
        <time>2023-09-13T12:27:10Z</time>
      </trkpt>
      <trkpt lat="44.40675" lon="3.75012">
        <ele>1292.69</ele>
        <time>2023-09-13T12:27:26Z</time>
      </trkpt>
      <trkpt lat="44.40657" lon="3.74994">
        <ele>1290.33</ele>
        <time>2023-09-13T12:27:46Z</time>
      </trkpt>
      <trkpt lat="44.40647" lon="3.74972">
        <ele>1290.33</ele>
        <time>2023-09-13T12:28:02Z</time>
      </trkpt>
      <trkpt lat="44.40641" lon="3.74947">
        <ele>1290.33</ele>
        <time>2023-09-13T12:28:18Z</time>
      </trkpt>
      <trkpt lat="44.40635" lon="3.74921">
        <ele>1288.33</ele>
        <time>2023-09-13T12:28:34Z</time>
      </trkpt>
      <trkpt lat="44.40627" lon="3.74896">
        <ele>1288.33</ele>
        <time>2023-09-13T12:28:50Z</time>
      </trkpt>
      <trkpt lat="44.40615" lon="3.74875">
        <ele>1285.33</ele>
        <time>2023-09-13T12:29:06Z</time>
      </trkpt>
      <trkpt lat="44.40604" lon="3.74851">
        <ele>1282.33</ele>
        <time>2023-09-13T12:29:34Z</time>
      </trkpt>
      <trkpt lat="44.40597" lon="3.74824">
        <ele>1278.33</ele>
        <time>2023-09-13T12:29:50Z</time>
      </trkpt>
      <trkpt lat="44.4059" lon="3.74799">
        <ele>1275.33</ele>
        <time>2023-09-13T12:30:06Z</time>
      </trkpt>
      <trkpt lat="44.40579" lon="3.74776">
        <ele>1272.33</ele>
        <time>2023-09-13T12:30:22Z</time>
      </trkpt>
      <trkpt lat="44.40568" lon="3.7475">
        <ele>1272.33</ele>
        <time>2023-09-13T12:30:38Z</time>
      </trkpt>
      <trkpt lat="44.40565" lon="3.74721">
        <ele>1269.33</ele>
        <time>2023-09-13T12:30:54Z</time>
      </trkpt>
      <trkpt lat="44.40569" lon="3.7469">
        <ele>1269.33</ele>
        <time>2023-09-13T12:31:10Z</time>
      </trkpt>
      <trkpt lat="44.40574" lon="3.74661">
        <ele>1267.33</ele>
        <time>2023-09-13T12:31:26Z</time>
      </trkpt>
      <trkpt lat="44.40579" lon="3.74634">
        <ele>1265.33</ele>
        <time>2023-09-13T12:31:42Z</time>
      </trkpt>
      <trkpt lat="44.40588" lon="3.74606">
        <ele>1263.33</ele>
        <time>2023-09-13T12:32:02Z</time>
      </trkpt>
      <trkpt lat="44.40601" lon="3.74581">
        <ele>1261.33</ele>
        <time>2023-09-13T12:32:22Z</time>
      </trkpt>
      <trkpt lat="44.40608" lon="3.74552">
        <ele>1259.33</ele>
        <time>2023-09-13T12:32:42Z</time>
      </trkpt>
      <trkpt lat="44.40598" lon="3.74529">
        <ele>1257.33</ele>
        <time>2023-09-13T12:33:02Z</time>
      </trkpt>
      <trkpt lat="44.40578" lon="3.74537">
        <ele>1256.33</ele>
        <time>2023-09-13T12:33:18Z</time>
      </trkpt>
      <trkpt lat="44.40561" lon="3.74547">
        <ele>1254.33</ele>
        <time>2023-09-13T12:33:34Z</time>
      </trkpt>
      <trkpt lat="44.4054" lon="3.74553">
        <ele>1253.33</ele>
        <time>2023-09-13T12:33:54Z</time>
      </trkpt>
      <trkpt lat="44.4052" lon="3.74548">
        <ele>1250.33</ele>
        <time>2023-09-13T12:34:14Z</time>
      </trkpt>
      <trkpt lat="44.40499" lon="3.74539">
        <ele>1250.33</ele>
        <time>2023-09-13T12:34:34Z</time>
      </trkpt>
      <trkpt lat="44.40482" lon="3.74526">
        <ele>1250.33</ele>
        <time>2023-09-13T12:34:50Z</time>
      </trkpt>
      <trkpt lat="44.40463" lon="3.74517">
        <ele>1245.33</ele>
        <time>2023-09-13T12:35:06Z</time>
      </trkpt>
      <trkpt lat="44.4045" lon="3.74499">
        <ele>1243.33</ele>
        <time>2023-09-13T12:35:22Z</time>
      </trkpt>
      <trkpt lat="44.40441" lon="3.74478">
        <ele>1240.33</ele>
        <time>2023-09-13T12:35:38Z</time>
      </trkpt>
      <trkpt lat="44.40429" lon="3.74451">
        <ele>1240.33</ele>
        <time>2023-09-13T12:35:58Z</time>
      </trkpt>
      <trkpt lat="44.40423" lon="3.74427">
        <ele>1241.33</ele>
        <time>2023-09-13T12:36:14Z</time>
      </trkpt>
      <trkpt lat="44.40418" lon="3.74451">
        <ele>1236.33</ele>
        <time>2023-09-13T12:36:42Z</time>
      </trkpt>
      <trkpt lat="44.40413" lon="3.74483">
        <ele>1232.33</ele>
        <time>2023-09-13T12:38:54Z</time>
      </trkpt>
      <trkpt lat="44.40403" lon="3.74506">
        <ele>1230.33</ele>
        <time>2023-09-13T12:39:10Z</time>
      </trkpt>
      <trkpt lat="44.40385" lon="3.74518">
        <ele>1230.33</ele>
        <time>2023-09-13T12:39:26Z</time>
      </trkpt>
      <trkpt lat="44.40365" lon="3.74528">
        <ele>1229.33</ele>
        <time>2023-09-13T12:39:42Z</time>
      </trkpt>
      <trkpt lat="44.40346" lon="3.74521">
        <ele>1228.33</ele>
        <time>2023-09-13T12:40:02Z</time>
      </trkpt>
      <trkpt lat="44.40328" lon="3.74502">
        <ele>1228.33</ele>
        <time>2023-09-13T12:40:18Z</time>
      </trkpt>
      <trkpt lat="44.40309" lon="3.74486">
        <ele>1227.33</ele>
        <time>2023-09-13T12:40:38Z</time>
      </trkpt>
      <trkpt lat="44.40288" lon="3.74486">
        <ele>1220.33</ele>
        <time>2023-09-13T12:41:30Z</time>
      </trkpt>
      <trkpt lat="44.40267" lon="3.74478">
        <ele>1220.33</ele>
        <time>2023-09-13T12:41:50Z</time>
      </trkpt>
      <trkpt lat="44.40249" lon="3.74464">
        <ele>1220.33</ele>
        <time>2023-09-13T12:42:06Z</time>
      </trkpt>
      <trkpt lat="44.40231" lon="3.74451">
        <ele>1219.33</ele>
        <time>2023-09-13T12:42:22Z</time>
      </trkpt>
      <trkpt lat="44.40213" lon="3.74438">
        <ele>1219.33</ele>
        <time>2023-09-13T12:42:38Z</time>
      </trkpt>
      <trkpt lat="44.40191" lon="3.74431">
        <ele>1217.33</ele>
        <time>2023-09-13T12:42:58Z</time>
      </trkpt>
      <trkpt lat="44.40169" lon="3.7443">
        <ele>1214.33</ele>
        <time>2023-09-13T12:43:42Z</time>
      </trkpt>
      <trkpt lat="44.40146" lon="3.74433">
        <ele>1211.33</ele>
        <time>2023-09-13T12:43:58Z</time>
      </trkpt>
      <trkpt lat="44.40124" lon="3.74433">
        <ele>1209.33</ele>
        <time>2023-09-13T12:44:14Z</time>
      </trkpt>
      <trkpt lat="44.40105" lon="3.74428">
        <ele>1208.33</ele>
        <time>2023-09-13T12:44:30Z</time>
      </trkpt>
      <trkpt lat="44.40089" lon="3.74407">
        <ele>1205.33</ele>
        <time>2023-09-13T12:44:54Z</time>
      </trkpt>
      <trkpt lat="44.40077" lon="3.74382">
        <ele>1203.33</ele>
        <time>2023-09-13T12:45:14Z</time>
      </trkpt>
      <trkpt lat="44.40055" lon="3.74379">
        <ele>1201.33</ele>
        <time>2023-09-13T12:45:30Z</time>
      </trkpt>
      <trkpt lat="44.40037" lon="3.74373">
        <ele>1199.33</ele>
        <time>2023-09-13T12:45:46Z</time>
      </trkpt>
      <trkpt lat="44.40019" lon="3.74383">
        <ele>1196.33</ele>
        <time>2023-09-13T12:46:06Z</time>
      </trkpt>
      <trkpt lat="44.40012" lon="3.74412">
        <ele>1195.33</ele>
        <time>2023-09-13T12:46:22Z</time>
      </trkpt>
      <trkpt lat="44.40001" lon="3.74432">
        <ele>1193.33</ele>
        <time>2023-09-13T12:46:38Z</time>
      </trkpt>
      <trkpt lat="44.39983" lon="3.74439">
        <ele>1195.33</ele>
        <time>2023-09-13T12:46:54Z</time>
      </trkpt>
      <trkpt lat="44.39962" lon="3.74437">
        <ele>1194.33</ele>
        <time>2023-09-13T12:47:10Z</time>
      </trkpt>
      <trkpt lat="44.39942" lon="3.74444">
        <ele>1192.33</ele>
        <time>2023-09-13T12:47:26Z</time>
      </trkpt>
      <trkpt lat="44.39921" lon="3.74452">
        <ele>1191.33</ele>
        <time>2023-09-13T12:47:42Z</time>
      </trkpt>
      <trkpt lat="44.39898" lon="3.74456">
        <ele>1192.33</ele>
        <time>2023-09-13T12:47:58Z</time>
      </trkpt>
      <trkpt lat="44.39878" lon="3.74455">
        <ele>1190.33</ele>
        <time>2023-09-13T12:48:14Z</time>
      </trkpt>
      <trkpt lat="44.39858" lon="3.74445">
        <ele>1190.33</ele>
        <time>2023-09-13T12:48:30Z</time>
      </trkpt>
      <trkpt lat="44.3984" lon="3.74443">
        <ele>1190.33</ele>
        <time>2023-09-13T12:48:42Z</time>
      </trkpt>
      <trkpt lat="44.39817" lon="3.74447">
        <ele>1188.33</ele>
        <time>2023-09-13T12:48:58Z</time>
      </trkpt>
      <trkpt lat="44.39793" lon="3.7445">
        <ele>1188.33</ele>
        <time>2023-09-13T12:49:14Z</time>
      </trkpt>
      <trkpt lat="44.39776" lon="3.74467">
        <ele>1186.33</ele>
        <time>2023-09-13T12:49:30Z</time>
      </trkpt>
      <trkpt lat="44.39762" lon="3.74492">
        <ele>1185.33</ele>
        <time>2023-09-13T12:49:46Z</time>
      </trkpt>
      <trkpt lat="44.39745" lon="3.7451">
        <ele>1185.33</ele>
        <time>2023-09-13T12:50:02Z</time>
      </trkpt>
      <trkpt lat="44.39723" lon="3.7451">
        <ele>1185.33</ele>
        <time>2023-09-13T12:50:18Z</time>
      </trkpt>
      <trkpt lat="44.39705" lon="3.74509">
        <ele>1184.33</ele>
        <time>2023-09-13T12:50:30Z</time>
      </trkpt>
      <trkpt lat="44.39681" lon="3.74507">
        <ele>1184.33</ele>
        <time>2023-09-13T12:50:46Z</time>
      </trkpt>
      <trkpt lat="44.39658" lon="3.74511">
        <ele>1183.33</ele>
        <time>2023-09-13T12:51:02Z</time>
      </trkpt>
      <trkpt lat="44.39636" lon="3.74506">
        <ele>1184.33</ele>
        <time>2023-09-13T12:51:18Z</time>
      </trkpt>
      <trkpt lat="44.39615" lon="3.74512">
        <ele>1182.33</ele>
        <time>2023-09-13T12:51:34Z</time>
      </trkpt>
      <trkpt lat="44.39593" lon="3.7452">
        <ele>1182.33</ele>
        <time>2023-09-13T12:51:50Z</time>
      </trkpt>
      <trkpt lat="44.39569" lon="3.74524">
        <ele>1182.33</ele>
        <time>2023-09-13T12:52:06Z</time>
      </trkpt>
      <trkpt lat="44.39546" lon="3.74525">
        <ele>1181.33</ele>
        <time>2023-09-13T12:52:22Z</time>
      </trkpt>
      <trkpt lat="44.39527" lon="3.74529">
        <ele>1178.33</ele>
        <time>2023-09-13T12:52:38Z</time>
      </trkpt>
      <trkpt lat="44.39507" lon="3.74532">
        <ele>1177.33</ele>
        <time>2023-09-13T12:52:58Z</time>
      </trkpt>
      <trkpt lat="44.39487" lon="3.74534">
        <ele>1178.33</ele>
        <time>2023-09-13T12:53:14Z</time>
      </trkpt>
      <trkpt lat="44.39464" lon="3.74543">
        <ele>1176.33</ele>
        <time>2023-09-13T12:53:34Z</time>
      </trkpt>
      <trkpt lat="44.39446" lon="3.74555">
        <ele>1175.33</ele>
        <time>2023-09-13T12:53:50Z</time>
      </trkpt>
      <trkpt lat="44.39428" lon="3.74572">
        <ele>1173.33</ele>
        <time>2023-09-13T12:54:10Z</time>
      </trkpt>
      <trkpt lat="44.39411" lon="3.74586">
        <ele>1171.33</ele>
        <time>2023-09-13T12:54:46Z</time>
      </trkpt>
      <trkpt lat="44.39398" lon="3.74609">
        <ele>1169.33</ele>
        <time>2023-09-13T12:55:06Z</time>
      </trkpt>
      <trkpt lat="44.39378" lon="3.74614">
        <ele>1169.33</ele>
        <time>2023-09-13T12:55:22Z</time>
      </trkpt>
      <trkpt lat="44.3936" lon="3.74597">
        <ele>1167.33</ele>
        <time>2023-09-13T12:55:51Z</time>
      </trkpt>
      <trkpt lat="44.39356" lon="3.7457">
        <ele>1165.33</ele>
        <time>2023-09-13T12:56:07Z</time>
      </trkpt>
      <trkpt lat="44.39356" lon="3.74542">
        <ele>1163.33</ele>
        <time>2023-09-13T12:56:27Z</time>
      </trkpt>
      <trkpt lat="44.39365" lon="3.74517">
        <ele>1162.33</ele>
        <time>2023-09-13T12:56:43Z</time>
      </trkpt>
      <trkpt lat="44.39375" lon="3.74494">
        <ele>1160.33</ele>
        <time>2023-09-13T12:56:59Z</time>
      </trkpt>
      <trkpt lat="44.39386" lon="3.7447">
        <ele>1157.33</ele>
        <time>2023-09-13T12:57:15Z</time>
      </trkpt>
      <trkpt lat="44.39393" lon="3.74445">
        <ele>1156.33</ele>
        <time>2023-09-13T12:57:31Z</time>
      </trkpt>
      <trkpt lat="44.39388" lon="3.74421">
        <ele>1153.33</ele>
        <time>2023-09-13T12:57:59Z</time>
      </trkpt>
      <trkpt lat="44.39373" lon="3.74402">
        <ele>1152.33</ele>
        <time>2023-09-13T12:58:15Z</time>
      </trkpt>
      <trkpt lat="44.39358" lon="3.74387">
        <ele>1152.33</ele>
        <time>2023-09-13T12:58:35Z</time>
      </trkpt>
      <trkpt lat="44.3935" lon="3.7436">
        <ele>1153.33</ele>
        <time>2023-09-13T12:58:55Z</time>
      </trkpt>
      <trkpt lat="44.39333" lon="3.74348">
        <ele>1151.33</ele>
        <time>2023-09-13T12:59:11Z</time>
      </trkpt>
      <trkpt lat="44.39312" lon="3.74345">
        <ele>1153.33</ele>
        <time>2023-09-13T12:59:27Z</time>
      </trkpt>
      <trkpt lat="44.39293" lon="3.74347">
        <ele>1151.33</ele>
        <time>2023-09-13T12:59:47Z</time>
      </trkpt>
      <trkpt lat="44.39274" lon="3.74349">
        <ele>1152.33</ele>
        <time>2023-09-13T13:00:03Z</time>
      </trkpt>
      <trkpt lat="44.39254" lon="3.74345">
        <ele>1151.33</ele>
        <time>2023-09-13T13:00:19Z</time>
      </trkpt>
      <trkpt lat="44.39233" lon="3.74347">
        <ele>1150.33</ele>
        <time>2023-09-13T13:00:35Z</time>
      </trkpt>
      <trkpt lat="44.39215" lon="3.7435">
        <ele>1147.33</ele>
        <time>2023-09-13T13:00:52Z</time>
      </trkpt>
      <trkpt lat="44.39201" lon="3.74328">
        <ele>1144.33</ele>
        <time>2023-09-13T13:01:24Z</time>
      </trkpt>
      <trkpt lat="44.39185" lon="3.74307">
        <ele>1145.33</ele>
        <time>2023-09-13T13:01:44Z</time>
      </trkpt>
      <trkpt lat="44.39164" lon="3.743">
        <ele>1147.33</ele>
        <time>2023-09-13T13:02:04Z</time>
      </trkpt>
      <trkpt lat="44.39142" lon="3.74303">
        <ele>1146.33</ele>
        <time>2023-09-13T13:02:24Z</time>
      </trkpt>
      <trkpt lat="44.39122" lon="3.74313">
        <ele>1144.33</ele>
        <time>2023-09-13T13:02:44Z</time>
      </trkpt>
      <trkpt lat="44.39106" lon="3.74336">
        <ele>1144.33</ele>
        <time>2023-09-13T13:03:04Z</time>
      </trkpt>
      <trkpt lat="44.39089" lon="3.74348">
        <ele>1142.33</ele>
        <time>2023-09-13T13:03:56Z</time>
      </trkpt>
      <trkpt lat="44.39069" lon="3.74356">
        <ele>1140.33</ele>
        <time>2023-09-13T13:04:16Z</time>
      </trkpt>
      <trkpt lat="44.39052" lon="3.74366">
        <ele>1141.33</ele>
        <time>2023-09-13T13:04:32Z</time>
      </trkpt>
      <trkpt lat="44.39037" lon="3.74385">
        <ele>1138.33</ele>
        <time>2023-09-13T13:05:32Z</time>
      </trkpt>
      <trkpt lat="44.3902" lon="3.74406">
        <ele>1137.33</ele>
        <time>2023-09-13T13:06:08Z</time>
      </trkpt>
      <trkpt lat="44.39004" lon="3.74422">
        <ele>1137.33</ele>
        <time>2023-09-13T13:06:24Z</time>
      </trkpt>
      <trkpt lat="44.38988" lon="3.74436">
        <ele>1135.33</ele>
        <time>2023-09-13T13:06:48Z</time>
      </trkpt>
      <trkpt lat="44.38971" lon="3.74449">
        <ele>1136.33</ele>
        <time>2023-09-13T13:07:04Z</time>
      </trkpt>
      <trkpt lat="44.38953" lon="3.7446">
        <ele>1138.33</ele>
        <time>2023-09-13T13:07:24Z</time>
      </trkpt>
      <trkpt lat="44.38935" lon="3.74472">
        <ele>1138.33</ele>
        <time>2023-09-13T13:07:40Z</time>
      </trkpt>
      <trkpt lat="44.38914" lon="3.74477">
        <ele>1138.33</ele>
        <time>2023-09-13T13:07:56Z</time>
      </trkpt>
      <trkpt lat="44.38893" lon="3.74477">
        <ele>1140.33</ele>
        <time>2023-09-13T13:08:12Z</time>
      </trkpt>
      <trkpt lat="44.38872" lon="3.74475">
        <ele>1141.33</ele>
        <time>2023-09-13T13:08:28Z</time>
      </trkpt>
      <trkpt lat="44.38851" lon="3.7447">
        <ele>1141.33</ele>
        <time>2023-09-13T13:08:44Z</time>
      </trkpt>
      <trkpt lat="44.38831" lon="3.74474">
        <ele>1140.33</ele>
        <time>2023-09-13T13:09:00Z</time>
      </trkpt>
      <trkpt lat="44.38811" lon="3.74479">
        <ele>1139.33</ele>
        <time>2023-09-13T13:09:16Z</time>
      </trkpt>
      <trkpt lat="44.38788" lon="3.74487">
        <ele>1136.33</ele>
        <time>2023-09-13T13:09:48Z</time>
      </trkpt>
      <trkpt lat="44.38767" lon="3.74492">
        <ele>1136.33</ele>
        <time>2023-09-13T13:10:04Z</time>
      </trkpt>
      <trkpt lat="44.38746" lon="3.74498">
        <ele>1136.33</ele>
        <time>2023-09-13T13:10:20Z</time>
      </trkpt>
      <trkpt lat="44.38729" lon="3.74506">
        <ele>1133.33</ele>
        <time>2023-09-13T13:10:36Z</time>
      </trkpt>
      <trkpt lat="44.38712" lon="3.74527">
        <ele>1132.33</ele>
        <time>2023-09-13T13:10:56Z</time>
      </trkpt>
      <trkpt lat="44.38691" lon="3.74537">
        <ele>1131.33</ele>
        <time>2023-09-13T13:11:28Z</time>
      </trkpt>
      <trkpt lat="44.38671" lon="3.74544">
        <ele>1130.33</ele>
        <time>2023-09-13T13:11:44Z</time>
      </trkpt>
      <trkpt lat="44.38652" lon="3.74541">
        <ele>1130.33</ele>
        <time>2023-09-13T13:12:00Z</time>
      </trkpt>
      <trkpt lat="44.38632" lon="3.74535">
        <ele>1130.33</ele>
        <time>2023-09-13T13:12:16Z</time>
      </trkpt>
      <trkpt lat="44.38612" lon="3.74527">
        <ele>1129.33</ele>
        <time>2023-09-13T13:12:32Z</time>
      </trkpt>
      <trkpt lat="44.38593" lon="3.74514">
        <ele>1128.33</ele>
        <time>2023-09-13T13:12:48Z</time>
      </trkpt>
      <trkpt lat="44.38578" lon="3.74499">
        <ele>1127.33</ele>
        <time>2023-09-13T13:13:12Z</time>
      </trkpt>
      <trkpt lat="44.38561" lon="3.74483">
        <ele>1126.33</ele>
        <time>2023-09-13T13:13:28Z</time>
      </trkpt>
      <trkpt lat="44.38544" lon="3.74466">
        <ele>1125.33</ele>
        <time>2023-09-13T13:13:56Z</time>
      </trkpt>
      <trkpt lat="44.38525" lon="3.7446">
        <ele>1125.33</ele>
        <time>2023-09-13T13:14:12Z</time>
      </trkpt>
      <trkpt lat="44.38505" lon="3.74465">
        <ele>1124.33</ele>
        <time>2023-09-13T13:14:40Z</time>
      </trkpt>
      <trkpt lat="44.38484" lon="3.74473">
        <ele>1121.33</ele>
        <time>2023-09-13T13:14:56Z</time>
      </trkpt>
      <trkpt lat="44.38464" lon="3.74477">
        <ele>1122.33</ele>
        <time>2023-09-13T13:15:12Z</time>
      </trkpt>
      <trkpt lat="44.38446" lon="3.74479">
        <ele>1122.33</ele>
        <time>2023-09-13T13:15:28Z</time>
      </trkpt>
      <trkpt lat="44.38428" lon="3.7447">
        <ele>1122.33</ele>
        <time>2023-09-13T13:15:44Z</time>
      </trkpt>
      <trkpt lat="44.38409" lon="3.74461">
        <ele>1125.33</ele>
        <time>2023-09-13T13:16:00Z</time>
      </trkpt>
      <trkpt lat="44.38388" lon="3.74456">
        <ele>1124.33</ele>
        <time>2023-09-13T13:16:20Z</time>
      </trkpt>
      <trkpt lat="44.38368" lon="3.74457">
        <ele>1124.33</ele>
        <time>2023-09-13T13:16:36Z</time>
      </trkpt>
      <trkpt lat="44.38349" lon="3.74456">
        <ele>1124.33</ele>
        <time>2023-09-13T13:16:52Z</time>
      </trkpt>
      <trkpt lat="44.38329" lon="3.74444">
        <ele>1125.33</ele>
        <time>2023-09-13T13:17:12Z</time>
      </trkpt>
      <trkpt lat="44.38309" lon="3.74448">
        <ele>1123.33</ele>
        <time>2023-09-13T13:17:28Z</time>
      </trkpt>
      <trkpt lat="44.38294" lon="3.74464">
        <ele>1122.33</ele>
        <time>2023-09-13T13:17:44Z</time>
      </trkpt>
      <trkpt lat="44.38282" lon="3.74485">
        <ele>1119.33</ele>
        <time>2023-09-13T13:18:00Z</time>
      </trkpt>
      <trkpt lat="44.38263" lon="3.74495">
        <ele>1120.33</ele>
        <time>2023-09-13T13:18:48Z</time>
      </trkpt>
      <trkpt lat="44.38245" lon="3.74505">
        <ele>1119.33</ele>
        <time>2023-09-13T13:19:16Z</time>
      </trkpt>
      <trkpt lat="44.38227" lon="3.7452">
        <ele>1118.33</ele>
        <time>2023-09-13T13:19:32Z</time>
      </trkpt>
      <trkpt lat="44.38207" lon="3.74517">
        <ele>1119.33</ele>
        <time>2023-09-13T13:20:05Z</time>
      </trkpt>
      <trkpt lat="44.38186" lon="3.74509">
        <ele>1118.33</ele>
        <time>2023-09-13T13:20:25Z</time>
      </trkpt>
      <trkpt lat="44.38167" lon="3.74503">
        <ele>1116.33</ele>
        <time>2023-09-13T13:20:41Z</time>
      </trkpt>
      <trkpt lat="44.38148" lon="3.74492">
        <ele>1114.33</ele>
        <time>2023-09-13T13:21:01Z</time>
      </trkpt>
      <trkpt lat="44.38129" lon="3.74484">
        <ele>1115.33</ele>
        <time>2023-09-13T13:21:17Z</time>
      </trkpt>
      <trkpt lat="44.38113" lon="3.74471">
        <ele>1114.33</ele>
        <time>2023-09-13T13:21:33Z</time>
      </trkpt>
      <trkpt lat="44.38093" lon="3.74472">
        <ele>1115.33</ele>
        <time>2023-09-13T13:21:49Z</time>
      </trkpt>
      <trkpt lat="44.38074" lon="3.7447">
        <ele>1113.33</ele>
        <time>2023-09-13T13:22:09Z</time>
      </trkpt>
      <trkpt lat="44.38057" lon="3.74463">
        <ele>1110.33</ele>
        <time>2023-09-13T13:24:17Z</time>
      </trkpt>
      <trkpt lat="44.38042" lon="3.74444">
        <ele>1109.33</ele>
        <time>2023-09-13T13:24:41Z</time>
      </trkpt>
      <trkpt lat="44.38023" lon="3.74444">
        <ele>1108.33</ele>
        <time>2023-09-13T13:24:57Z</time>
      </trkpt>
      <trkpt lat="44.38005" lon="3.74448">
        <ele>1105.33</ele>
        <time>2023-09-13T13:25:25Z</time>
      </trkpt>
      <trkpt lat="44.37986" lon="3.74454">
        <ele>1103.33</ele>
        <time>2023-09-13T13:25:53Z</time>
      </trkpt>
      <trkpt lat="44.37967" lon="3.74446">
        <ele>1103.33</ele>
        <time>2023-09-13T13:26:17Z</time>
      </trkpt>
      <trkpt lat="44.37948" lon="3.7444">
        <ele>1106.33</ele>
        <time>2023-09-13T13:26:37Z</time>
      </trkpt>
      <trkpt lat="44.37928" lon="3.74442">
        <ele>1106.33</ele>
        <time>2023-09-13T13:26:53Z</time>
      </trkpt>
      <trkpt lat="44.37908" lon="3.74446">
        <ele>1106.33</ele>
        <time>2023-09-13T13:27:13Z</time>
      </trkpt>
      <trkpt lat="44.37891" lon="3.74434">
        <ele>1106.33</ele>
        <time>2023-09-13T13:27:41Z</time>
      </trkpt>
      <trkpt lat="44.37881" lon="3.74413">
        <ele>1106.33</ele>
        <time>2023-09-13T13:27:57Z</time>
      </trkpt>
      <trkpt lat="44.37866" lon="3.74393">
        <ele>1104.33</ele>
        <time>2023-09-13T13:28:21Z</time>
      </trkpt>
      <trkpt lat="44.37861" lon="3.74368">
        <ele>1108.33</ele>
        <time>2023-09-13T13:28:41Z</time>
      </trkpt>
      <trkpt lat="44.37848" lon="3.74347">
        <ele>1111.33</ele>
        <time>2023-09-13T13:29:05Z</time>
      </trkpt>
      <trkpt lat="44.37834" lon="3.74321">
        <ele>1115.33</ele>
        <time>2023-09-13T13:29:37Z</time>
      </trkpt>
      <trkpt lat="44.37816" lon="3.74317">
        <ele>1114.33</ele>
        <time>2023-09-13T13:29:53Z</time>
      </trkpt>
      <trkpt lat="44.37796" lon="3.74318">
        <ele>1116.33</ele>
        <time>2023-09-13T13:30:17Z</time>
      </trkpt>
      <trkpt lat="44.37781" lon="3.74334">
        <ele>1112.33</ele>
        <time>2023-09-13T13:30:45Z</time>
      </trkpt>
      <trkpt lat="44.37766" lon="3.74354">
        <ele>1113.33</ele>
        <time>2023-09-13T13:31:01Z</time>
      </trkpt>
      <trkpt lat="44.37752" lon="3.74374">
        <ele>1113.33</ele>
        <time>2023-09-13T13:31:17Z</time>
      </trkpt>
      <trkpt lat="44.37741" lon="3.74395">
        <ele>1112.33</ele>
        <time>2023-09-13T13:32:05Z</time>
      </trkpt>
      <trkpt lat="44.37726" lon="3.74373">
        <ele>1110.33</ele>
        <time>2023-09-13T13:33:22Z</time>
      </trkpt>
      <trkpt lat="44.37708" lon="3.74368">
        <ele>1111.33</ele>
        <time>2023-09-13T13:33:50Z</time>
      </trkpt>
      <trkpt lat="44.37684" lon="3.74364">
        <ele>1111.33</ele>
        <time>2023-09-13T13:34:06Z</time>
      </trkpt>
      <trkpt lat="44.37664" lon="3.74362">
        <ele>1110.33</ele>
        <time>2023-09-13T13:34:22Z</time>
      </trkpt>
      <trkpt lat="44.37642" lon="3.7436">
        <ele>1110.33</ele>
        <time>2023-09-13T13:34:42Z</time>
      </trkpt>
      <trkpt lat="44.37622" lon="3.7436">
        <ele>1109.33</ele>
        <time>2023-09-13T13:34:58Z</time>
      </trkpt>
      <trkpt lat="44.37612" lon="3.74338">
        <ele>1107.33</ele>
        <time>2023-09-13T13:35:34Z</time>
      </trkpt>
      <trkpt lat="44.376" lon="3.74319">
        <ele>1107.33</ele>
        <time>2023-09-13T13:35:55Z</time>
      </trkpt>
      <trkpt lat="44.37592" lon="3.74295">
        <ele>1107.33</ele>
        <time>2023-09-13T13:36:11Z</time>
      </trkpt>
      <trkpt lat="44.37583" lon="3.74273">
        <ele>1106.33</ele>
        <time>2023-09-13T13:36:27Z</time>
      </trkpt>
      <trkpt lat="44.3757" lon="3.74252">
        <ele>1102.33</ele>
        <time>2023-09-13T13:36:51Z</time>
      </trkpt>
      <trkpt lat="44.37553" lon="3.74265">
        <ele>1102.33</ele>
        <time>2023-09-13T13:37:07Z</time>
      </trkpt>
      <trkpt lat="44.37537" lon="3.74279">
        <ele>1103.33</ele>
        <time>2023-09-13T13:37:27Z</time>
      </trkpt>
      <trkpt lat="44.37518" lon="3.74286">
        <ele>1099.33</ele>
        <time>2023-09-13T13:38:19Z</time>
      </trkpt>
      <trkpt lat="44.37503" lon="3.74301">
        <ele>1099.33</ele>
        <time>2023-09-13T13:38:35Z</time>
      </trkpt>
      <trkpt lat="44.37486" lon="3.74313">
        <ele>1096.33</ele>
        <time>2023-09-13T13:38:51Z</time>
      </trkpt>
      <trkpt lat="44.37469" lon="3.74327">
        <ele>1095.33</ele>
        <time>2023-09-13T13:39:07Z</time>
      </trkpt>
      <trkpt lat="44.37453" lon="3.74338">
        <ele>1095.33</ele>
        <time>2023-09-13T13:39:23Z</time>
      </trkpt>
      <trkpt lat="44.37436" lon="3.7436">
        <ele>1093.33</ele>
        <time>2023-09-13T13:39:43Z</time>
      </trkpt>
      <trkpt lat="44.37429" lon="3.74385">
        <ele>1090.33</ele>
        <time>2023-09-13T13:40:15Z</time>
      </trkpt>
      <trkpt lat="44.37418" lon="3.7441">
        <ele>1089.33</ele>
        <time>2023-09-13T13:40:31Z</time>
      </trkpt>
      <trkpt lat="44.37406" lon="3.74434">
        <ele>1086.33</ele>
        <time>2023-09-13T13:40:47Z</time>
      </trkpt>
      <trkpt lat="44.37396" lon="3.74456">
        <ele>1085.33</ele>
        <time>2023-09-13T13:41:03Z</time>
      </trkpt>
      <trkpt lat="44.37384" lon="3.74479">
        <ele>1083.33</ele>
        <time>2023-09-13T13:41:19Z</time>
      </trkpt>
      <trkpt lat="44.37371" lon="3.74496">
        <ele>1083.33</ele>
        <time>2023-09-13T13:41:35Z</time>
      </trkpt>
      <trkpt lat="44.37352" lon="3.7451">
        <ele>1084.33</ele>
        <time>2023-09-13T13:41:55Z</time>
      </trkpt>
      <trkpt lat="44.37334" lon="3.74522">
        <ele>1083.33</ele>
        <time>2023-09-13T13:42:19Z</time>
      </trkpt>
      <trkpt lat="44.37315" lon="3.7453">
        <ele>1080.33</ele>
        <time>2023-09-13T13:42:51Z</time>
      </trkpt>
      <trkpt lat="44.37295" lon="3.74528">
        <ele>1079.33</ele>
        <time>2023-09-13T13:43:43Z</time>
      </trkpt>
      <trkpt lat="44.37276" lon="3.74526">
        <ele>1073.33</ele>
        <time>2023-09-13T13:45:15Z</time>
      </trkpt>
      <trkpt lat="44.37255" lon="3.74525">
        <ele>1070.33</ele>
        <time>2023-09-13T13:45:47Z</time>
      </trkpt>
      <trkpt lat="44.3724" lon="3.74543">
        <ele>1066.33</ele>
        <time>2023-09-13T13:46:19Z</time>
      </trkpt>
      <trkpt lat="44.37229" lon="3.74565">
        <ele>1063.33</ele>
        <time>2023-09-13T13:46:35Z</time>
      </trkpt>
      <trkpt lat="44.37215" lon="3.74581">
        <ele>1061.33</ele>
        <time>2023-09-13T13:46:51Z</time>
      </trkpt>
      <trkpt lat="44.37196" lon="3.74598">
        <ele>1058.33</ele>
        <time>2023-09-13T13:47:11Z</time>
      </trkpt>
      <trkpt lat="44.37181" lon="3.74614">
        <ele>1055.33</ele>
        <time>2023-09-13T13:47:39Z</time>
      </trkpt>
      <trkpt lat="44.3716" lon="3.7461">
        <ele>1051.33</ele>
        <time>2023-09-13T13:48:11Z</time>
      </trkpt>
      <trkpt lat="44.37142" lon="3.74604">
        <ele>1045.33</ele>
        <time>2023-09-13T13:48:47Z</time>
      </trkpt>
      <trkpt lat="44.37127" lon="3.7462">
        <ele>1039.33</ele>
        <time>2023-09-13T13:49:31Z</time>
      </trkpt>
      <trkpt lat="44.37109" lon="3.74612">
        <ele>1037.33</ele>
        <time>2023-09-13T13:50:07Z</time>
      </trkpt>
      <trkpt lat="44.37091" lon="3.74617">
        <ele>1033.33</ele>
        <time>2023-09-13T13:50:31Z</time>
      </trkpt>
      <trkpt lat="44.37096" lon="3.74592">
        <ele>1031.33</ele>
        <time>2023-09-13T13:51:07Z</time>
      </trkpt>
      <trkpt lat="44.37102" lon="3.74565">
        <ele>1026.33</ele>
        <time>2023-09-13T13:51:35Z</time>
      </trkpt>
      <trkpt lat="44.37109" lon="3.74539">
        <ele>1025.33</ele>
        <time>2023-09-13T13:52:07Z</time>
      </trkpt>
      <trkpt lat="44.37113" lon="3.74511">
        <ele>1023.33</ele>
        <time>2023-09-13T13:52:43Z</time>
      </trkpt>
      <trkpt lat="44.37094" lon="3.74502">
        <ele>1021.33</ele>
        <time>2023-09-13T13:53:19Z</time>
      </trkpt>
      <trkpt lat="44.37076" lon="3.74505">
        <ele>1016.33</ele>
        <time>2023-09-13T13:53:47Z</time>
      </trkpt>
      <trkpt lat="44.37056" lon="3.74505">
        <ele>1014.33</ele>
        <time>2023-09-13T13:54:15Z</time>
      </trkpt>
      <trkpt lat="44.37036" lon="3.745">
        <ele>1007.33</ele>
        <time>2023-09-13T13:54:47Z</time>
      </trkpt>
      <trkpt lat="44.37018" lon="3.74488">
        <ele>1005.33</ele>
        <time>2023-09-13T13:55:11Z</time>
      </trkpt>
      <trkpt lat="44.37" lon="3.74487">
        <ele>1002.33</ele>
        <time>2023-09-13T13:55:47Z</time>
      </trkpt>
      <trkpt lat="44.36983" lon="3.74496">
        <ele>995.33</ele>
        <time>2023-09-13T13:56:27Z</time>
      </trkpt>
      <trkpt lat="44.36968" lon="3.7451">
        <ele>991.33</ele>
        <time>2023-09-13T13:56:59Z</time>
      </trkpt>
      <trkpt lat="44.3695" lon="3.74502">
        <ele>987.33</ele>
        <time>2023-09-13T13:57:27Z</time>
      </trkpt>
      <trkpt lat="44.36929" lon="3.74493">
        <ele>984.33</ele>
        <time>2023-09-13T13:57:55Z</time>
      </trkpt>
      <trkpt lat="44.36911" lon="3.74485">
        <ele>981.33</ele>
        <time>2023-09-13T13:58:19Z</time>
      </trkpt>
      <trkpt lat="44.36894" lon="3.74471">
        <ele>974.33</ele>
        <time>2023-09-13T13:58:47Z</time>
      </trkpt>
      <trkpt lat="44.36874" lon="3.74459">
        <ele>972.33</ele>
        <time>2023-09-13T13:59:11Z</time>
      </trkpt>
      <trkpt lat="44.36853" lon="3.74447">
        <ele>970.33</ele>
        <time>2023-09-13T13:59:35Z</time>
      </trkpt>
      <trkpt lat="44.36833" lon="3.74447">
        <ele>967.33</ele>
        <time>2023-09-13T13:59:55Z</time>
      </trkpt>
      <trkpt lat="44.36814" lon="3.74444">
        <ele>962.33</ele>
        <time>2023-09-13T14:00:19Z</time>
      </trkpt>
      <trkpt lat="44.36794" lon="3.74439">
        <ele>959.33</ele>
        <time>2023-09-13T14:00:39Z</time>
      </trkpt>
      <trkpt lat="44.36777" lon="3.74432">
        <ele>954.33</ele>
        <time>2023-09-13T14:01:03Z</time>
      </trkpt>
      <trkpt lat="44.36763" lon="3.74412">
        <ele>954.33</ele>
        <time>2023-09-13T14:01:27Z</time>
      </trkpt>
      <trkpt lat="44.36744" lon="3.74399">
        <ele>953.33</ele>
        <time>2023-09-13T14:01:51Z</time>
      </trkpt>
      <trkpt lat="44.36726" lon="3.74409">
        <ele>952.33</ele>
        <time>2023-09-13T14:02:15Z</time>
      </trkpt>
      <trkpt lat="44.36706" lon="3.74422">
        <ele>948.33</ele>
        <time>2023-09-13T14:02:39Z</time>
      </trkpt>
      <trkpt lat="44.36686" lon="3.74432">
        <ele>936.33</ele>
        <time>2023-09-13T14:03:04Z</time>
      </trkpt>
      <trkpt lat="44.36668" lon="3.74436">
        <ele>933.33</ele>
        <time>2023-09-13T14:03:25Z</time>
      </trkpt>
      <trkpt lat="44.36649" lon="3.74434">
        <ele>928.33</ele>
        <time>2023-09-13T14:03:45Z</time>
      </trkpt>
      <trkpt lat="44.3663" lon="3.74425">
        <ele>926.33</ele>
        <time>2023-09-13T14:04:09Z</time>
      </trkpt>
      <trkpt lat="44.3661" lon="3.74429">
        <ele>921.33</ele>
        <time>2023-09-13T14:04:33Z</time>
      </trkpt>
      <trkpt lat="44.36592" lon="3.74436">
        <ele>915.33</ele>
        <time>2023-09-13T14:05:09Z</time>
      </trkpt>
      <trkpt lat="44.36572" lon="3.74436">
        <ele>911.33</ele>
        <time>2023-09-13T14:06:01Z</time>
      </trkpt>
      <trkpt lat="44.36553" lon="3.74426">
        <ele>909.33</ele>
        <time>2023-09-13T14:06:29Z</time>
      </trkpt>
      <trkpt lat="44.36533" lon="3.74418">
        <ele>905.33</ele>
        <time>2023-09-13T14:06:49Z</time>
      </trkpt>
      <trkpt lat="44.36514" lon="3.74412">
        <ele>901.33</ele>
        <time>2023-09-13T14:08:01Z</time>
      </trkpt>
      <trkpt lat="44.36497" lon="3.74403">
        <ele>901.33</ele>
        <time>2023-09-13T14:08:57Z</time>
      </trkpt>
      <trkpt lat="44.36479" lon="3.74407">
        <ele>899.33</ele>
        <time>2023-09-13T14:12:37Z</time>
      </trkpt>
      <trkpt lat="44.36461" lon="3.74412">
        <ele>896.33</ele>
        <time>2023-09-13T14:13:17Z</time>
      </trkpt>
      <trkpt lat="44.36446" lon="3.74391">
        <ele>895.33</ele>
        <time>2023-09-13T14:13:41Z</time>
      </trkpt>
      <trkpt lat="44.36433" lon="3.74373">
        <ele>893.33</ele>
        <time>2023-09-13T14:14:01Z</time>
      </trkpt>
      <trkpt lat="44.36413" lon="3.74381">
        <ele>887.33</ele>
        <time>2023-09-13T14:14:33Z</time>
      </trkpt>
      <trkpt lat="44.36393" lon="3.74388">
        <ele>887.33</ele>
        <time>2023-09-13T14:14:57Z</time>
      </trkpt>
      <trkpt lat="44.36386" lon="3.74363">
        <ele>879.33</ele>
        <time>2023-09-13T14:15:33Z</time>
      </trkpt>
      <trkpt lat="44.36385" lon="3.74332">
        <ele>879.33</ele>
        <time>2023-09-13T14:15:53Z</time>
      </trkpt>
      <trkpt lat="44.36366" lon="3.74336">
        <ele>876.33</ele>
        <time>2023-09-13T14:16:13Z</time>
      </trkpt>
      <trkpt lat="44.36345" lon="3.74343">
        <ele>874.33</ele>
        <time>2023-09-13T14:16:49Z</time>
      </trkpt>
      <trkpt lat="44.36327" lon="3.74356">
        <ele>876.33</ele>
        <time>2023-09-13T14:17:09Z</time>
      </trkpt>
      <trkpt lat="44.36306" lon="3.74348">
        <ele>869.33</ele>
        <time>2023-09-13T14:18:13Z</time>
      </trkpt>
      <trkpt lat="44.36288" lon="3.7434">
        <ele>870.33</ele>
        <time>2023-09-13T14:18:29Z</time>
      </trkpt>
      <trkpt lat="44.36279" lon="3.74362">
        <ele>873.33</ele>
        <time>2023-09-13T14:18:53Z</time>
      </trkpt>
      <trkpt lat="44.36294" lon="3.74379">
        <ele>955.33</ele>
        <time>2023-09-13T14:24:45Z</time>
      </trkpt>
      <trkpt lat="44.36288" lon="3.74404">
        <ele>951.33</ele>
        <time>2023-09-13T14:24:54Z</time>
      </trkpt>
      <trkpt lat="44.36282" lon="3.74367">
        <ele>886.33</ele>
        <time>2023-09-13T14:29:10Z</time>
      </trkpt>
    </trkseg>
  </trk>
</gpx>